<?xml version="1.0" encoding="UTF-8" standalone="no" ?>
<gpx xmlns="http://www.topografix.com/GPX/1/1" xmlns:xsi="http://www.w3.org/2001/XMLSchema-instance" xsi:schemaLocation="http://www.topografix.com/GPX/1/1 http://www.topografix.com/GPX/1/1/gpx.xsd" version="1.1" creator="VisuGPX - https://www.visugpx.com">
  <metadata>
    <name>2024-04-25-46-Salvagnac-Cajarc</name>
    <desc><![CDATA[Beau circuit de 20 km pour environ 450 m de dénivelé positif. De beaux chemins et 3 bonnes côtes pour découvrir de belles vues sur la vallée du LOT, passage par le Saut de la Mounine et quelques hameaux bien sympathiques
]]></desc>
  </metadata>
  <trk>
    <name><![CDATA[salvagnac- cajarc (12260-18810993]]></name>
    <trkseg>
      <trkpt lat="44.4753" lon="1.84753">
        <ele>165</ele>
        <time>2024-04-23T03:47:52Z</time>
      </trkpt>
      <trkpt lat="44.47532" lon="1.84753">
        <ele>165</ele>
        <time>2024-04-23T03:47:55Z</time>
      </trkpt>
      <trkpt lat="44.47529" lon="1.84756">
        <ele>165</ele>
        <time>2024-04-23T03:48:00Z</time>
      </trkpt>
      <trkpt lat="44.47533" lon="1.84754">
        <ele>165</ele>
        <time>2024-04-23T03:48:05Z</time>
      </trkpt>
      <trkpt lat="44.47534" lon="1.84756">
        <ele>166</ele>
        <time>2024-04-23T03:48:08Z</time>
      </trkpt>
      <trkpt lat="44.47532" lon="1.84758">
        <ele>166</ele>
        <time>2024-04-23T03:48:11Z</time>
      </trkpt>
      <trkpt lat="44.47534" lon="1.8477">
        <ele>167</ele>
        <time>2024-04-23T03:48:23Z</time>
      </trkpt>
      <trkpt lat="44.47532" lon="1.84776">
        <ele>168</ele>
        <time>2024-04-23T03:48:29Z</time>
      </trkpt>
      <trkpt lat="44.47528" lon="1.84777">
        <ele>167</ele>
        <time>2024-04-23T03:48:34Z</time>
      </trkpt>
      <trkpt lat="44.47526" lon="1.84776">
        <ele>167</ele>
        <time>2024-04-23T03:48:37Z</time>
      </trkpt>
      <trkpt lat="44.47527" lon="1.84787">
        <ele>168</ele>
        <time>2024-04-23T03:48:48Z</time>
      </trkpt>
      <trkpt lat="44.47525" lon="1.84795">
        <ele>169</ele>
        <time>2024-04-23T03:48:56Z</time>
      </trkpt>
      <trkpt lat="44.47517" lon="1.84804">
        <ele>169</ele>
        <time>2024-04-23T03:49:09Z</time>
      </trkpt>
      <trkpt lat="44.47499" lon="1.84813">
        <ele>167</ele>
        <time>2024-04-23T03:49:35Z</time>
      </trkpt>
      <trkpt lat="44.47485" lon="1.84831">
        <ele>168</ele>
        <time>2024-04-23T03:50:00Z</time>
      </trkpt>
      <trkpt lat="44.47476" lon="1.84837">
        <ele>168</ele>
        <time>2024-04-23T03:50:14Z</time>
      </trkpt>
      <trkpt lat="44.4744" lon="1.84899">
        <ele>171</ele>
        <time>2024-04-23T03:51:30Z</time>
      </trkpt>
      <trkpt lat="44.47404" lon="1.84944">
        <ele>172</ele>
        <time>2024-04-23T03:52:34Z</time>
      </trkpt>
      <trkpt lat="44.47393" lon="1.84965">
        <ele>174</ele>
        <time>2024-04-23T03:52:59Z</time>
      </trkpt>
      <trkpt lat="44.47359" lon="1.85015">
        <ele>176</ele>
        <time>2024-04-23T03:54:05Z</time>
      </trkpt>
      <trkpt lat="44.47322" lon="1.851">
        <ele>181</ele>
        <time>2024-04-23T03:55:40Z</time>
      </trkpt>
      <trkpt lat="44.47316" lon="1.85107">
        <ele>182</ele>
        <time>2024-04-23T03:55:50Z</time>
      </trkpt>
      <trkpt lat="44.47305" lon="1.85129">
        <ele>184</ele>
        <time>2024-04-23T03:56:16Z</time>
      </trkpt>
      <trkpt lat="44.47296" lon="1.85152">
        <ele>185</ele>
        <time>2024-04-23T03:56:40Z</time>
      </trkpt>
      <trkpt lat="44.47277" lon="1.85209">
        <ele>184</ele>
        <time>2024-04-23T03:57:40Z</time>
      </trkpt>
      <trkpt lat="44.47269" lon="1.85249">
        <ele>183</ele>
        <time>2024-04-23T03:58:20Z</time>
      </trkpt>
      <trkpt lat="44.47258" lon="1.85258">
        <ele>179</ele>
        <time>2024-04-23T03:58:37Z</time>
      </trkpt>
      <trkpt lat="44.47254" lon="1.85257">
        <ele>178</ele>
        <time>2024-04-23T03:58:42Z</time>
      </trkpt>
      <trkpt lat="44.47235" lon="1.85263">
        <ele>180</ele>
        <time>2024-04-23T03:59:08Z</time>
      </trkpt>
      <trkpt lat="44.47231" lon="1.85266">
        <ele>181</ele>
        <time>2024-04-23T03:59:14Z</time>
      </trkpt>
      <trkpt lat="44.47211" lon="1.85295">
        <ele>186</ele>
        <time>2024-04-23T03:59:53Z</time>
      </trkpt>
      <trkpt lat="44.47205" lon="1.85308">
        <ele>187</ele>
        <time>2024-04-23T04:00:08Z</time>
      </trkpt>
      <trkpt lat="44.47202" lon="1.85326">
        <ele>187</ele>
        <time>2024-04-23T04:00:25Z</time>
      </trkpt>
      <trkpt lat="44.47206" lon="1.85326">
        <ele>186</ele>
        <time>2024-04-23T04:00:31Z</time>
      </trkpt>
      <trkpt lat="44.47203" lon="1.8533">
        <ele>186</ele>
        <time>2024-04-23T04:00:36Z</time>
      </trkpt>
      <trkpt lat="44.4721" lon="1.85366">
        <ele>189</ele>
        <time>2024-04-23T04:01:12Z</time>
      </trkpt>
      <trkpt lat="44.47213" lon="1.85402">
        <ele>193</ele>
        <time>2024-04-23T04:01:46Z</time>
      </trkpt>
      <trkpt lat="44.47213" lon="1.85456">
        <ele>199</ele>
        <time>2024-04-23T04:02:38Z</time>
      </trkpt>
      <trkpt lat="44.47207" lon="1.85534">
        <ele>207</ele>
        <time>2024-04-23T04:03:52Z</time>
      </trkpt>
      <trkpt lat="44.47195" lon="1.85592">
        <ele>215</ele>
        <time>2024-04-23T04:04:50Z</time>
      </trkpt>
      <trkpt lat="44.47179" lon="1.85638">
        <ele>219</ele>
        <time>2024-04-23T04:05:38Z</time>
      </trkpt>
      <trkpt lat="44.47167" lon="1.85668">
        <ele>223</ele>
        <time>2024-04-23T04:06:11Z</time>
      </trkpt>
      <trkpt lat="44.47158" lon="1.85696">
        <ele>225</ele>
        <time>2024-04-23T04:06:40Z</time>
      </trkpt>
      <trkpt lat="44.47149" lon="1.85719">
        <ele>229</ele>
        <time>2024-04-23T04:07:05Z</time>
      </trkpt>
      <trkpt lat="44.47147" lon="1.85728">
        <ele>229</ele>
        <time>2024-04-23T04:07:14Z</time>
      </trkpt>
      <trkpt lat="44.47148" lon="1.85734">
        <ele>228</ele>
        <time>2024-04-23T04:07:20Z</time>
      </trkpt>
      <trkpt lat="44.47146" lon="1.85734">
        <ele>229</ele>
        <time>2024-04-23T04:07:23Z</time>
      </trkpt>
      <trkpt lat="44.47145" lon="1.85736">
        <ele>229</ele>
        <time>2024-04-23T04:07:25Z</time>
      </trkpt>
      <trkpt lat="44.47142" lon="1.85732">
        <ele>231</ele>
        <time>2024-04-23T04:07:31Z</time>
      </trkpt>
      <trkpt lat="44.47144" lon="1.85732">
        <ele>230</ele>
        <time>2024-04-23T04:07:33Z</time>
      </trkpt>
      <trkpt lat="44.47131" lon="1.85765">
        <ele>233</ele>
        <time>2024-04-23T04:08:09Z</time>
      </trkpt>
      <trkpt lat="44.47095" lon="1.85835">
        <ele>240</ele>
        <time>2024-04-23T04:09:32Z</time>
      </trkpt>
      <trkpt lat="44.47065" lon="1.85898">
        <ele>244</ele>
        <time>2024-04-23T04:10:44Z</time>
      </trkpt>
      <trkpt lat="44.47056" lon="1.85914">
        <ele>246</ele>
        <time>2024-04-23T04:11:03Z</time>
      </trkpt>
      <trkpt lat="44.47038" lon="1.85938">
        <ele>250</ele>
        <time>2024-04-23T04:11:36Z</time>
      </trkpt>
      <trkpt lat="44.47021" lon="1.85951">
        <ele>255</ele>
        <time>2024-04-23T04:12:02Z</time>
      </trkpt>
      <trkpt lat="44.47015" lon="1.85958">
        <ele>257</ele>
        <time>2024-04-23T04:12:12Z</time>
      </trkpt>
      <trkpt lat="44.46988" lon="1.85977">
        <ele>264</ele>
        <time>2024-04-23T04:12:53Z</time>
      </trkpt>
      <trkpt lat="44.46977" lon="1.85989">
        <ele>265</ele>
        <time>2024-04-23T04:13:11Z</time>
      </trkpt>
      <trkpt lat="44.46968" lon="1.86003">
        <ele>267</ele>
        <time>2024-04-23T04:13:29Z</time>
      </trkpt>
      <trkpt lat="44.46946" lon="1.86032">
        <ele>273</ele>
        <time>2024-04-23T04:14:10Z</time>
      </trkpt>
      <trkpt lat="44.4694" lon="1.86045">
        <ele>275</ele>
        <time>2024-04-23T04:14:24Z</time>
      </trkpt>
      <trkpt lat="44.46931" lon="1.86065">
        <ele>278</ele>
        <time>2024-04-23T04:14:47Z</time>
      </trkpt>
      <trkpt lat="44.46926" lon="1.86082">
        <ele>279</ele>
        <time>2024-04-23T04:15:04Z</time>
      </trkpt>
      <trkpt lat="44.46924" lon="1.86101">
        <ele>280</ele>
        <time>2024-04-23T04:15:23Z</time>
      </trkpt>
      <trkpt lat="44.46924" lon="1.86155">
        <ele>283</ele>
        <time>2024-04-23T04:16:14Z</time>
      </trkpt>
      <trkpt lat="44.46925" lon="1.86159">
        <ele>283</ele>
        <time>2024-04-23T04:16:18Z</time>
      </trkpt>
      <trkpt lat="44.46919" lon="1.86163">
        <ele>285</ele>
        <time>2024-04-23T04:16:27Z</time>
      </trkpt>
      <trkpt lat="44.4692" lon="1.86162">
        <ele>285</ele>
        <time>2024-04-23T04:16:29Z</time>
      </trkpt>
      <trkpt lat="44.46922" lon="1.86163">
        <ele>284</ele>
        <time>2024-04-23T04:16:31Z</time>
      </trkpt>
      <trkpt lat="44.46914" lon="1.86159">
        <ele>286</ele>
        <time>2024-04-23T04:16:43Z</time>
      </trkpt>
      <trkpt lat="44.4691" lon="1.86164">
        <ele>287</ele>
        <time>2024-04-23T04:16:50Z</time>
      </trkpt>
      <trkpt lat="44.46911" lon="1.86161">
        <ele>287</ele>
        <time>2024-04-23T04:16:53Z</time>
      </trkpt>
      <trkpt lat="44.46909" lon="1.86164">
        <ele>287</ele>
        <time>2024-04-23T04:16:57Z</time>
      </trkpt>
      <trkpt lat="44.46902" lon="1.86172">
        <ele>288</ele>
        <time>2024-04-23T04:17:09Z</time>
      </trkpt>
      <trkpt lat="44.46842" lon="1.86197">
        <ele>298</ele>
        <time>2024-04-23T04:18:33Z</time>
      </trkpt>
      <trkpt lat="44.4682" lon="1.86204">
        <ele>300</ele>
        <time>2024-04-23T04:19:03Z</time>
      </trkpt>
      <trkpt lat="44.46795" lon="1.8621">
        <ele>301</ele>
        <time>2024-04-23T04:19:37Z</time>
      </trkpt>
      <trkpt lat="44.46779" lon="1.86212">
        <ele>302</ele>
        <time>2024-04-23T04:19:58Z</time>
      </trkpt>
      <trkpt lat="44.46748" lon="1.86221">
        <ele>304</ele>
        <time>2024-04-23T04:20:40Z</time>
      </trkpt>
      <trkpt lat="44.46737" lon="1.86221">
        <ele>303</ele>
        <time>2024-04-23T04:20:55Z</time>
      </trkpt>
      <trkpt lat="44.46735" lon="1.8622">
        <ele>303</ele>
        <time>2024-04-23T04:20:58Z</time>
      </trkpt>
      <trkpt lat="44.46714" lon="1.86186">
        <ele>303</ele>
        <time>2024-04-23T04:21:41Z</time>
      </trkpt>
      <trkpt lat="44.46701" lon="1.86173">
        <ele>303</ele>
        <time>2024-04-23T04:22:02Z</time>
      </trkpt>
      <trkpt lat="44.46686" lon="1.86166">
        <ele>302</ele>
        <time>2024-04-23T04:22:23Z</time>
      </trkpt>
      <trkpt lat="44.46677" lon="1.8617">
        <ele>301</ele>
        <time>2024-04-23T04:22:36Z</time>
      </trkpt>
      <trkpt lat="44.46669" lon="1.86178">
        <ele>301</ele>
        <time>2024-04-23T04:22:49Z</time>
      </trkpt>
      <trkpt lat="44.46657" lon="1.86179">
        <ele>300</ele>
        <time>2024-04-23T04:23:05Z</time>
      </trkpt>
      <trkpt lat="44.46641" lon="1.86188">
        <ele>298</ele>
        <time>2024-04-23T04:23:28Z</time>
      </trkpt>
      <trkpt lat="44.46623" lon="1.86191">
        <ele>297</ele>
        <time>2024-04-23T04:23:52Z</time>
      </trkpt>
      <trkpt lat="44.46608" lon="1.86197">
        <ele>295</ele>
        <time>2024-04-23T04:24:13Z</time>
      </trkpt>
      <trkpt lat="44.46593" lon="1.862">
        <ele>294</ele>
        <time>2024-04-23T04:24:33Z</time>
      </trkpt>
      <trkpt lat="44.46579" lon="1.86196">
        <ele>292</ele>
        <time>2024-04-23T04:24:52Z</time>
      </trkpt>
      <trkpt lat="44.46571" lon="1.86197">
        <ele>291</ele>
        <time>2024-04-23T04:25:03Z</time>
      </trkpt>
      <trkpt lat="44.46561" lon="1.86205">
        <ele>290</ele>
        <time>2024-04-23T04:25:18Z</time>
      </trkpt>
      <trkpt lat="44.46561" lon="1.86213">
        <ele>290</ele>
        <time>2024-04-23T04:25:26Z</time>
      </trkpt>
      <trkpt lat="44.46556" lon="1.86203">
        <ele>289</ele>
        <time>2024-04-23T04:25:37Z</time>
      </trkpt>
      <trkpt lat="44.46552" lon="1.862">
        <ele>289</ele>
        <time>2024-04-23T04:25:43Z</time>
      </trkpt>
      <trkpt lat="44.46521" lon="1.86194">
        <ele>284</ele>
        <time>2024-04-23T04:26:25Z</time>
      </trkpt>
      <trkpt lat="44.46504" lon="1.86198">
        <ele>283</ele>
        <time>2024-04-23T04:26:48Z</time>
      </trkpt>
      <trkpt lat="44.46465" lon="1.86206">
        <ele>281</ele>
        <time>2024-04-23T04:27:41Z</time>
      </trkpt>
      <trkpt lat="44.4643" lon="1.86215">
        <ele>281</ele>
        <time>2024-04-23T04:28:28Z</time>
      </trkpt>
      <trkpt lat="44.46383" lon="1.86222">
        <ele>283</ele>
        <time>2024-04-23T04:29:31Z</time>
      </trkpt>
      <trkpt lat="44.46366" lon="1.86222">
        <ele>283</ele>
        <time>2024-04-23T04:29:54Z</time>
      </trkpt>
      <trkpt lat="44.46348" lon="1.86219">
        <ele>284</ele>
        <time>2024-04-23T04:30:18Z</time>
      </trkpt>
      <trkpt lat="44.46308" lon="1.86209">
        <ele>288</ele>
        <time>2024-04-23T04:31:12Z</time>
      </trkpt>
      <trkpt lat="44.46278" lon="1.86211">
        <ele>292</ele>
        <time>2024-04-23T04:31:53Z</time>
      </trkpt>
      <trkpt lat="44.46236" lon="1.86217">
        <ele>297</ele>
        <time>2024-04-23T04:32:49Z</time>
      </trkpt>
      <trkpt lat="44.46225" lon="1.86216">
        <ele>298</ele>
        <time>2024-04-23T04:33:04Z</time>
      </trkpt>
      <trkpt lat="44.46194" lon="1.8622">
        <ele>302</ele>
        <time>2024-04-23T04:33:45Z</time>
      </trkpt>
      <trkpt lat="44.46179" lon="1.8622">
        <ele>304</ele>
        <time>2024-04-23T04:34:05Z</time>
      </trkpt>
      <trkpt lat="44.46163" lon="1.86224">
        <ele>306</ele>
        <time>2024-04-23T04:34:27Z</time>
      </trkpt>
      <trkpt lat="44.4614" lon="1.86224">
        <ele>307</ele>
        <time>2024-04-23T04:34:58Z</time>
      </trkpt>
      <trkpt lat="44.46095" lon="1.86247">
        <ele>309</ele>
        <time>2024-04-23T04:36:01Z</time>
      </trkpt>
      <trkpt lat="44.4608" lon="1.86251">
        <ele>310</ele>
        <time>2024-04-23T04:36:22Z</time>
      </trkpt>
      <trkpt lat="44.46043" lon="1.86268">
        <ele>308</ele>
        <time>2024-04-23T04:37:14Z</time>
      </trkpt>
      <trkpt lat="44.46011" lon="1.86281">
        <ele>307</ele>
        <time>2024-04-23T04:37:58Z</time>
      </trkpt>
      <trkpt lat="44.45997" lon="1.86296">
        <ele>306</ele>
        <time>2024-04-23T04:38:22Z</time>
      </trkpt>
      <trkpt lat="44.45996" lon="1.8631">
        <ele>307</ele>
        <time>2024-04-23T04:38:35Z</time>
      </trkpt>
      <trkpt lat="44.46008" lon="1.86343">
        <ele>310</ele>
        <time>2024-04-23T04:39:10Z</time>
      </trkpt>
      <trkpt lat="44.46043" lon="1.86471">
        <ele>313</ele>
        <time>2024-04-23T04:41:21Z</time>
      </trkpt>
      <trkpt lat="44.46041" lon="1.865">
        <ele>313</ele>
        <time>2024-04-23T04:41:49Z</time>
      </trkpt>
      <trkpt lat="44.46034" lon="1.86534">
        <ele>313</ele>
        <time>2024-04-23T04:42:22Z</time>
      </trkpt>
      <trkpt lat="44.46026" lon="1.86553">
        <ele>313</ele>
        <time>2024-04-23T04:42:43Z</time>
      </trkpt>
      <trkpt lat="44.46019" lon="1.86589">
        <ele>314</ele>
        <time>2024-04-23T04:43:19Z</time>
      </trkpt>
      <trkpt lat="44.46021" lon="1.86636">
        <ele>314</ele>
        <time>2024-04-23T04:44:04Z</time>
      </trkpt>
      <trkpt lat="44.46027" lon="1.86675">
        <ele>314</ele>
        <time>2024-04-23T04:44:42Z</time>
      </trkpt>
      <trkpt lat="44.46031" lon="1.86731">
        <ele>313</ele>
        <time>2024-04-23T04:45:35Z</time>
      </trkpt>
      <trkpt lat="44.46036" lon="1.86763">
        <ele>312</ele>
        <time>2024-04-23T04:46:07Z</time>
      </trkpt>
      <trkpt lat="44.46037" lon="1.86791">
        <ele>312</ele>
        <time>2024-04-23T04:46:33Z</time>
      </trkpt>
      <trkpt lat="44.46056" lon="1.86931">
        <ele>309</ele>
        <time>2024-04-23T04:48:49Z</time>
      </trkpt>
      <trkpt lat="44.4609" lon="1.86993">
        <ele>307</ele>
        <time>2024-04-23T04:50:04Z</time>
      </trkpt>
      <trkpt lat="44.461" lon="1.87017">
        <ele>306</ele>
        <time>2024-04-23T04:50:30Z</time>
      </trkpt>
      <trkpt lat="44.46111" lon="1.87038">
        <ele>306</ele>
        <time>2024-04-23T04:50:55Z</time>
      </trkpt>
      <trkpt lat="44.46152" lon="1.87134">
        <ele>308</ele>
        <time>2024-04-23T04:52:41Z</time>
      </trkpt>
      <trkpt lat="44.46198" lon="1.87257">
        <ele>306</ele>
        <time>2024-04-23T04:54:54Z</time>
      </trkpt>
      <trkpt lat="44.46197" lon="1.87264">
        <ele>306</ele>
        <time>2024-04-23T04:55:00Z</time>
      </trkpt>
      <trkpt lat="44.46204" lon="1.87289">
        <ele>304</ele>
        <time>2024-04-23T04:55:26Z</time>
      </trkpt>
      <trkpt lat="44.46221" lon="1.87335">
        <ele>304</ele>
        <time>2024-04-23T04:56:15Z</time>
      </trkpt>
      <trkpt lat="44.46233" lon="1.8739">
        <ele>307</ele>
        <time>2024-04-23T04:57:10Z</time>
      </trkpt>
      <trkpt lat="44.46248" lon="1.87421">
        <ele>311</ele>
        <time>2024-04-23T04:57:46Z</time>
      </trkpt>
      <trkpt lat="44.46256" lon="1.87444">
        <ele>312</ele>
        <time>2024-04-23T04:58:10Z</time>
      </trkpt>
      <trkpt lat="44.46261" lon="1.87453">
        <ele>313</ele>
        <time>2024-04-23T04:58:21Z</time>
      </trkpt>
      <trkpt lat="44.46262" lon="1.87455">
        <ele>313</ele>
        <time>2024-04-23T04:58:23Z</time>
      </trkpt>
      <trkpt lat="44.46284" lon="1.87467">
        <ele>314</ele>
        <time>2024-04-23T04:58:55Z</time>
      </trkpt>
      <trkpt lat="44.46314" lon="1.87479">
        <ele>315</ele>
        <time>2024-04-23T04:59:37Z</time>
      </trkpt>
      <trkpt lat="44.46333" lon="1.87489">
        <ele>316</ele>
        <time>2024-04-23T05:00:04Z</time>
      </trkpt>
      <trkpt lat="44.46363" lon="1.875">
        <ele>316</ele>
        <time>2024-04-23T05:00:45Z</time>
      </trkpt>
      <trkpt lat="44.46391" lon="1.87514">
        <ele>316</ele>
        <time>2024-04-23T05:01:25Z</time>
      </trkpt>
      <trkpt lat="44.46407" lon="1.87525">
        <ele>317</ele>
        <time>2024-04-23T05:01:48Z</time>
      </trkpt>
      <trkpt lat="44.46413" lon="1.87545">
        <ele>317</ele>
        <time>2024-04-23T05:02:09Z</time>
      </trkpt>
      <trkpt lat="44.46409" lon="1.87577">
        <ele>318</ele>
        <time>2024-04-23T05:02:40Z</time>
      </trkpt>
      <trkpt lat="44.46409" lon="1.87598">
        <ele>318</ele>
        <time>2024-04-23T05:03:00Z</time>
      </trkpt>
      <trkpt lat="44.46406" lon="1.87606">
        <ele>319</ele>
        <time>2024-04-23T05:03:09Z</time>
      </trkpt>
      <trkpt lat="44.46401" lon="1.87645">
        <ele>320</ele>
        <time>2024-04-23T05:03:46Z</time>
      </trkpt>
      <trkpt lat="44.4638" lon="1.87774">
        <ele>318</ele>
        <time>2024-04-23T05:05:52Z</time>
      </trkpt>
      <trkpt lat="44.4638" lon="1.878">
        <ele>317</ele>
        <time>2024-04-23T05:06:17Z</time>
      </trkpt>
      <trkpt lat="44.46391" lon="1.87825">
        <ele>318</ele>
        <time>2024-04-23T05:06:45Z</time>
      </trkpt>
      <trkpt lat="44.46412" lon="1.87852">
        <ele>319</ele>
        <time>2024-04-23T05:07:23Z</time>
      </trkpt>
      <trkpt lat="44.46422" lon="1.87882">
        <ele>319</ele>
        <time>2024-04-23T05:07:55Z</time>
      </trkpt>
      <trkpt lat="44.46429" lon="1.87908">
        <ele>319</ele>
        <time>2024-04-23T05:08:21Z</time>
      </trkpt>
      <trkpt lat="44.46431" lon="1.87937">
        <ele>318</ele>
        <time>2024-04-23T05:08:49Z</time>
      </trkpt>
      <trkpt lat="44.46431" lon="1.87961">
        <ele>318</ele>
        <time>2024-04-23T05:09:12Z</time>
      </trkpt>
      <trkpt lat="44.46429" lon="1.87995">
        <ele>317</ele>
        <time>2024-04-23T05:09:44Z</time>
      </trkpt>
      <trkpt lat="44.46419" lon="1.88046">
        <ele>318</ele>
        <time>2024-04-23T05:10:35Z</time>
      </trkpt>
      <trkpt lat="44.46409" lon="1.88077">
        <ele>319</ele>
        <time>2024-04-23T05:11:07Z</time>
      </trkpt>
      <trkpt lat="44.46394" lon="1.88102">
        <ele>318</ele>
        <time>2024-04-23T05:11:38Z</time>
      </trkpt>
      <trkpt lat="44.46334" lon="1.88185">
        <ele>320</ele>
        <time>2024-04-23T05:13:31Z</time>
      </trkpt>
      <trkpt lat="44.46314" lon="1.88201">
        <ele>319</ele>
        <time>2024-04-23T05:14:01Z</time>
      </trkpt>
      <trkpt lat="44.46282" lon="1.88237">
        <ele>318</ele>
        <time>2024-04-23T05:14:56Z</time>
      </trkpt>
      <trkpt lat="44.46272" lon="1.88244">
        <ele>318</ele>
        <time>2024-04-23T05:15:11Z</time>
      </trkpt>
      <trkpt lat="44.46255" lon="1.88254">
        <ele>318</ele>
        <time>2024-04-23T05:15:36Z</time>
      </trkpt>
      <trkpt lat="44.4623" lon="1.88254">
        <ele>318</ele>
        <time>2024-04-23T05:16:09Z</time>
      </trkpt>
      <trkpt lat="44.46225" lon="1.88252">
        <ele>317</ele>
        <time>2024-04-23T05:16:16Z</time>
      </trkpt>
      <trkpt lat="44.46214" lon="1.88239">
        <ele>317</ele>
        <time>2024-04-23T05:16:35Z</time>
      </trkpt>
      <trkpt lat="44.46208" lon="1.88217">
        <ele>315</ele>
        <time>2024-04-23T05:16:58Z</time>
      </trkpt>
      <trkpt lat="44.46208" lon="1.88175">
        <ele>313</ele>
        <time>2024-04-23T05:17:38Z</time>
      </trkpt>
      <trkpt lat="44.462" lon="1.88121">
        <ele>309</ele>
        <time>2024-04-23T05:18:30Z</time>
      </trkpt>
      <trkpt lat="44.46203" lon="1.88066">
        <ele>304</ele>
        <time>2024-04-23T05:19:23Z</time>
      </trkpt>
      <trkpt lat="44.46212" lon="1.88003">
        <ele>297</ele>
        <time>2024-04-23T05:20:24Z</time>
      </trkpt>
      <trkpt lat="44.46213" lon="1.87981">
        <ele>295</ele>
        <time>2024-04-23T05:20:45Z</time>
      </trkpt>
      <trkpt lat="44.46208" lon="1.87961">
        <ele>293</ele>
        <time>2024-04-23T05:21:05Z</time>
      </trkpt>
      <trkpt lat="44.46201" lon="1.87942">
        <ele>291</ele>
        <time>2024-04-23T05:21:25Z</time>
      </trkpt>
      <trkpt lat="44.4619" lon="1.87924">
        <ele>287</ele>
        <time>2024-04-23T05:21:48Z</time>
      </trkpt>
      <trkpt lat="44.46175" lon="1.87912">
        <ele>284</ele>
        <time>2024-04-23T05:22:11Z</time>
      </trkpt>
      <trkpt lat="44.46149" lon="1.8791">
        <ele>281</ele>
        <time>2024-04-23T05:22:46Z</time>
      </trkpt>
      <trkpt lat="44.46133" lon="1.87912">
        <ele>279</ele>
        <time>2024-04-23T05:23:07Z</time>
      </trkpt>
      <trkpt lat="44.46078" lon="1.87918">
        <ele>273</ele>
        <time>2024-04-23T05:24:21Z</time>
      </trkpt>
      <trkpt lat="44.46062" lon="1.87917">
        <ele>274</ele>
        <time>2024-04-23T05:24:42Z</time>
      </trkpt>
      <trkpt lat="44.46043" lon="1.87912">
        <ele>276</ele>
        <time>2024-04-23T05:25:08Z</time>
      </trkpt>
      <trkpt lat="44.46022" lon="1.87893">
        <ele>277</ele>
        <time>2024-04-23T05:25:41Z</time>
      </trkpt>
      <trkpt lat="44.4601" lon="1.87877">
        <ele>276</ele>
        <time>2024-04-23T05:26:03Z</time>
      </trkpt>
      <trkpt lat="44.46002" lon="1.87858">
        <ele>274</ele>
        <time>2024-04-23T05:26:24Z</time>
      </trkpt>
      <trkpt lat="44.45996" lon="1.87839">
        <ele>273</ele>
        <time>2024-04-23T05:26:44Z</time>
      </trkpt>
      <trkpt lat="44.45975" lon="1.87761">
        <ele>274</ele>
        <time>2024-04-23T05:28:04Z</time>
      </trkpt>
      <trkpt lat="44.45972" lon="1.87739">
        <ele>273</ele>
        <time>2024-04-23T05:28:25Z</time>
      </trkpt>
      <trkpt lat="44.45969" lon="1.87698">
        <ele>271</ele>
        <time>2024-04-23T05:29:04Z</time>
      </trkpt>
      <trkpt lat="44.45969" lon="1.87654">
        <ele>269</ele>
        <time>2024-04-23T05:29:46Z</time>
      </trkpt>
      <trkpt lat="44.45982" lon="1.87611">
        <ele>265</ele>
        <time>2024-04-23T05:30:31Z</time>
      </trkpt>
      <trkpt lat="44.45986" lon="1.87594">
        <ele>263</ele>
        <time>2024-04-23T05:30:48Z</time>
      </trkpt>
      <trkpt lat="44.45985" lon="1.87554">
        <ele>259</ele>
        <time>2024-04-23T05:31:26Z</time>
      </trkpt>
      <trkpt lat="44.4599" lon="1.87535">
        <ele>256</ele>
        <time>2024-04-23T05:31:45Z</time>
      </trkpt>
      <trkpt lat="44.46" lon="1.8751">
        <ele>251</ele>
        <time>2024-04-23T05:32:12Z</time>
      </trkpt>
      <trkpt lat="44.46" lon="1.87491">
        <ele>249</ele>
        <time>2024-04-23T05:32:31Z</time>
      </trkpt>
      <trkpt lat="44.46007" lon="1.87428">
        <ele>246</ele>
        <time>2024-04-23T05:33:31Z</time>
      </trkpt>
      <trkpt lat="44.46006" lon="1.87416">
        <ele>245</ele>
        <time>2024-04-23T05:33:43Z</time>
      </trkpt>
      <trkpt lat="44.46" lon="1.87402">
        <ele>244</ele>
        <time>2024-04-23T05:33:58Z</time>
      </trkpt>
      <trkpt lat="44.4598" lon="1.87379">
        <ele>243</ele>
        <time>2024-04-23T05:34:33Z</time>
      </trkpt>
      <trkpt lat="44.4597" lon="1.8737">
        <ele>243</ele>
        <time>2024-04-23T05:34:49Z</time>
      </trkpt>
      <trkpt lat="44.45954" lon="1.87366">
        <ele>243</ele>
        <time>2024-04-23T05:35:10Z</time>
      </trkpt>
      <trkpt lat="44.45866" lon="1.87369">
        <ele>238</ele>
        <time>2024-04-23T05:37:08Z</time>
      </trkpt>
      <trkpt lat="44.4585" lon="1.87375">
        <ele>236</ele>
        <time>2024-04-23T05:37:30Z</time>
      </trkpt>
      <trkpt lat="44.45825" lon="1.87388">
        <ele>233</ele>
        <time>2024-04-23T05:38:06Z</time>
      </trkpt>
      <trkpt lat="44.4581" lon="1.87407">
        <ele>229</ele>
        <time>2024-04-23T05:38:33Z</time>
      </trkpt>
      <trkpt lat="44.45803" lon="1.87424">
        <ele>227</ele>
        <time>2024-04-23T05:38:51Z</time>
      </trkpt>
      <trkpt lat="44.45789" lon="1.87449">
        <ele>230</ele>
        <time>2024-04-23T05:39:21Z</time>
      </trkpt>
      <trkpt lat="44.45775" lon="1.87461">
        <ele>229</ele>
        <time>2024-04-23T05:39:43Z</time>
      </trkpt>
      <trkpt lat="44.45758" lon="1.87482">
        <ele>226</ele>
        <time>2024-04-23T05:40:14Z</time>
      </trkpt>
      <trkpt lat="44.45727" lon="1.87502">
        <ele>220</ele>
        <time>2024-04-23T05:40:59Z</time>
      </trkpt>
      <trkpt lat="44.45711" lon="1.87506">
        <ele>218</ele>
        <time>2024-04-23T05:41:21Z</time>
      </trkpt>
      <trkpt lat="44.45694" lon="1.87505">
        <ele>215</ele>
        <time>2024-04-23T05:41:44Z</time>
      </trkpt>
      <trkpt lat="44.45671" lon="1.8751">
        <ele>212</ele>
        <time>2024-04-23T05:42:15Z</time>
      </trkpt>
      <trkpt lat="44.45644" lon="1.87513">
        <ele>209</ele>
        <time>2024-04-23T05:42:51Z</time>
      </trkpt>
      <trkpt lat="44.45624" lon="1.87521">
        <ele>208</ele>
        <time>2024-04-23T05:43:19Z</time>
      </trkpt>
      <trkpt lat="44.45612" lon="1.87527">
        <ele>206</ele>
        <time>2024-04-23T05:43:36Z</time>
      </trkpt>
      <trkpt lat="44.45604" lon="1.87534">
        <ele>205</ele>
        <time>2024-04-23T05:43:48Z</time>
      </trkpt>
      <trkpt lat="44.45593" lon="1.87546">
        <ele>204</ele>
        <time>2024-04-23T05:44:07Z</time>
      </trkpt>
      <trkpt lat="44.4558" lon="1.87569">
        <ele>201</ele>
        <time>2024-04-23T05:44:35Z</time>
      </trkpt>
      <trkpt lat="44.45571" lon="1.87575">
        <ele>201</ele>
        <time>2024-04-23T05:44:48Z</time>
      </trkpt>
      <trkpt lat="44.45564" lon="1.87576">
        <ele>201</ele>
        <time>2024-04-23T05:44:57Z</time>
      </trkpt>
      <trkpt lat="44.45556" lon="1.87571">
        <ele>201</ele>
        <time>2024-04-23T05:45:09Z</time>
      </trkpt>
      <trkpt lat="44.45547" lon="1.87559">
        <ele>201</ele>
        <time>2024-04-23T05:45:26Z</time>
      </trkpt>
      <trkpt lat="44.45547" lon="1.87554">
        <ele>200</ele>
        <time>2024-04-23T05:45:30Z</time>
      </trkpt>
      <trkpt lat="44.45551" lon="1.87551">
        <ele>200</ele>
        <time>2024-04-23T05:45:36Z</time>
      </trkpt>
      <trkpt lat="44.45546" lon="1.87551">
        <ele>200</ele>
        <time>2024-04-23T05:45:43Z</time>
      </trkpt>
      <trkpt lat="44.45543" lon="1.87555">
        <ele>200</ele>
        <time>2024-04-23T05:45:49Z</time>
      </trkpt>
      <trkpt lat="44.45541" lon="1.87605">
        <ele>203</ele>
        <time>2024-04-23T05:46:36Z</time>
      </trkpt>
      <trkpt lat="44.45534" lon="1.8765">
        <ele>207</ele>
        <time>2024-04-23T05:47:20Z</time>
      </trkpt>
      <trkpt lat="44.45534" lon="1.87688">
        <ele>209</ele>
        <time>2024-04-23T05:47:56Z</time>
      </trkpt>
      <trkpt lat="44.45528" lon="1.87704">
        <ele>210</ele>
        <time>2024-04-23T05:48:14Z</time>
      </trkpt>
      <trkpt lat="44.45521" lon="1.87734">
        <ele>210</ele>
        <time>2024-04-23T05:48:44Z</time>
      </trkpt>
      <trkpt lat="44.45495" lon="1.87805">
        <ele>209</ele>
        <time>2024-04-23T05:50:00Z</time>
      </trkpt>
      <trkpt lat="44.45491" lon="1.87822">
        <ele>210</ele>
        <time>2024-04-23T05:50:17Z</time>
      </trkpt>
      <trkpt lat="44.45486" lon="1.87834">
        <ele>212</ele>
        <time>2024-04-23T05:50:30Z</time>
      </trkpt>
      <trkpt lat="44.4548" lon="1.87852">
        <ele>214</ele>
        <time>2024-04-23T05:50:49Z</time>
      </trkpt>
      <trkpt lat="44.45466" lon="1.87883">
        <ele>218</ele>
        <time>2024-04-23T05:51:24Z</time>
      </trkpt>
      <trkpt lat="44.45459" lon="1.87927">
        <ele>218</ele>
        <time>2024-04-23T05:52:07Z</time>
      </trkpt>
      <trkpt lat="44.4546" lon="1.87932">
        <ele>217</ele>
        <time>2024-04-23T05:52:12Z</time>
      </trkpt>
      <trkpt lat="44.45461" lon="1.87954">
        <ele>216</ele>
        <time>2024-04-23T05:52:33Z</time>
      </trkpt>
      <trkpt lat="44.45471" lon="1.87999">
        <ele>211</ele>
        <time>2024-04-23T05:53:18Z</time>
      </trkpt>
      <trkpt lat="44.45474" lon="1.8802">
        <ele>210</ele>
        <time>2024-04-23T05:53:38Z</time>
      </trkpt>
      <trkpt lat="44.45493" lon="1.88082">
        <ele>204</ele>
        <time>2024-04-23T05:54:42Z</time>
      </trkpt>
      <trkpt lat="44.45503" lon="1.88096">
        <ele>203</ele>
        <time>2024-04-23T05:55:01Z</time>
      </trkpt>
      <trkpt lat="44.45509" lon="1.88117">
        <ele>205</ele>
        <time>2024-04-23T05:55:23Z</time>
      </trkpt>
      <trkpt lat="44.45508" lon="1.88123">
        <ele>206</ele>
        <time>2024-04-23T05:55:29Z</time>
      </trkpt>
      <trkpt lat="44.45516" lon="1.8815">
        <ele>209</ele>
        <time>2024-04-23T05:55:56Z</time>
      </trkpt>
      <trkpt lat="44.45525" lon="1.88173">
        <ele>211</ele>
        <time>2024-04-23T05:56:21Z</time>
      </trkpt>
      <trkpt lat="44.45532" lon="1.88182">
        <ele>212</ele>
        <time>2024-04-23T05:56:34Z</time>
      </trkpt>
      <trkpt lat="44.45534" lon="1.8819">
        <ele>212</ele>
        <time>2024-04-23T05:56:42Z</time>
      </trkpt>
      <trkpt lat="44.45536" lon="1.88201">
        <ele>213</ele>
        <time>2024-04-23T05:56:53Z</time>
      </trkpt>
      <trkpt lat="44.45536" lon="1.88243">
        <ele>213</ele>
        <time>2024-04-23T05:57:33Z</time>
      </trkpt>
      <trkpt lat="44.45541" lon="1.88259">
        <ele>213</ele>
        <time>2024-04-23T05:57:50Z</time>
      </trkpt>
      <trkpt lat="44.45555" lon="1.88272">
        <ele>214</ele>
        <time>2024-04-23T05:58:12Z</time>
      </trkpt>
      <trkpt lat="44.45559" lon="1.88278">
        <ele>214</ele>
        <time>2024-04-23T05:58:20Z</time>
      </trkpt>
      <trkpt lat="44.45563" lon="1.88294">
        <ele>214</ele>
        <time>2024-04-23T05:58:36Z</time>
      </trkpt>
      <trkpt lat="44.4556" lon="1.88316">
        <ele>213</ele>
        <time>2024-04-23T05:58:57Z</time>
      </trkpt>
      <trkpt lat="44.45559" lon="1.88356">
        <ele>212</ele>
        <time>2024-04-23T05:59:35Z</time>
      </trkpt>
      <trkpt lat="44.45563" lon="1.88417">
        <ele>211</ele>
        <time>2024-04-23T06:00:34Z</time>
      </trkpt>
      <trkpt lat="44.45569" lon="1.88458">
        <ele>213</ele>
        <time>2024-04-23T06:01:14Z</time>
      </trkpt>
      <trkpt lat="44.45574" lon="1.88505">
        <ele>215</ele>
        <time>2024-04-23T06:01:59Z</time>
      </trkpt>
      <trkpt lat="44.45572" lon="1.88652">
        <ele>217</ele>
        <time>2024-04-23T06:04:19Z</time>
      </trkpt>
      <trkpt lat="44.45575" lon="1.88677">
        <ele>217</ele>
        <time>2024-04-23T06:04:43Z</time>
      </trkpt>
      <trkpt lat="44.4558" lon="1.88701">
        <ele>215</ele>
        <time>2024-04-23T06:05:07Z</time>
      </trkpt>
      <trkpt lat="44.45587" lon="1.88723">
        <ele>215</ele>
        <time>2024-04-23T06:05:30Z</time>
      </trkpt>
      <trkpt lat="44.45591" lon="1.8873">
        <ele>216</ele>
        <time>2024-04-23T06:05:38Z</time>
      </trkpt>
      <trkpt lat="44.45604" lon="1.88752">
        <ele>219</ele>
        <time>2024-04-23T06:06:06Z</time>
      </trkpt>
      <trkpt lat="44.45616" lon="1.88766">
        <ele>223</ele>
        <time>2024-04-23T06:06:26Z</time>
      </trkpt>
      <trkpt lat="44.45629" lon="1.88777">
        <ele>226</ele>
        <time>2024-04-23T06:06:47Z</time>
      </trkpt>
      <trkpt lat="44.45638" lon="1.88791">
        <ele>227</ele>
        <time>2024-04-23T06:07:05Z</time>
      </trkpt>
      <trkpt lat="44.45646" lon="1.88812">
        <ele>227</ele>
        <time>2024-04-23T06:07:27Z</time>
      </trkpt>
      <trkpt lat="44.45647" lon="1.88822">
        <ele>226</ele>
        <time>2024-04-23T06:07:37Z</time>
      </trkpt>
      <trkpt lat="44.45645" lon="1.88853">
        <ele>224</ele>
        <time>2024-04-23T06:08:07Z</time>
      </trkpt>
      <trkpt lat="44.45637" lon="1.88904">
        <ele>224</ele>
        <time>2024-04-23T06:08:56Z</time>
      </trkpt>
      <trkpt lat="44.45631" lon="1.88952">
        <ele>223</ele>
        <time>2024-04-23T06:09:43Z</time>
      </trkpt>
      <trkpt lat="44.45621" lon="1.88972">
        <ele>222</ele>
        <time>2024-04-23T06:10:06Z</time>
      </trkpt>
      <trkpt lat="44.45626" lon="1.88993">
        <ele>223</ele>
        <time>2024-04-23T06:10:27Z</time>
      </trkpt>
      <trkpt lat="44.45638" lon="1.89015">
        <ele>224</ele>
        <time>2024-04-23T06:10:54Z</time>
      </trkpt>
      <trkpt lat="44.45646" lon="1.89024">
        <ele>224</ele>
        <time>2024-04-23T06:11:07Z</time>
      </trkpt>
      <trkpt lat="44.45689" lon="1.89065">
        <ele>225</ele>
        <time>2024-04-23T06:12:17Z</time>
      </trkpt>
      <trkpt lat="44.45708" lon="1.89089">
        <ele>224</ele>
        <time>2024-04-23T06:12:51Z</time>
      </trkpt>
      <trkpt lat="44.45717" lon="1.89092">
        <ele>225</ele>
        <time>2024-04-23T06:13:03Z</time>
      </trkpt>
      <trkpt lat="44.45735" lon="1.89096">
        <ele>225</ele>
        <time>2024-04-23T06:13:27Z</time>
      </trkpt>
      <trkpt lat="44.45748" lon="1.89104">
        <ele>225</ele>
        <time>2024-04-23T06:13:46Z</time>
      </trkpt>
      <trkpt lat="44.45759" lon="1.89115">
        <ele>227</ele>
        <time>2024-04-23T06:14:04Z</time>
      </trkpt>
      <trkpt lat="44.4579" lon="1.89157">
        <ele>229</ele>
        <time>2024-04-23T06:15:02Z</time>
      </trkpt>
      <trkpt lat="44.458" lon="1.89163">
        <ele>229</ele>
        <time>2024-04-23T06:15:16Z</time>
      </trkpt>
      <trkpt lat="44.45823" lon="1.8918">
        <ele>229</ele>
        <time>2024-04-23T06:15:51Z</time>
      </trkpt>
      <trkpt lat="44.45837" lon="1.89195">
        <ele>228</ele>
        <time>2024-04-23T06:16:15Z</time>
      </trkpt>
      <trkpt lat="44.45837" lon="1.89202">
        <ele>228</ele>
        <time>2024-04-23T06:16:21Z</time>
      </trkpt>
      <trkpt lat="44.45841" lon="1.89207">
        <ele>227</ele>
        <time>2024-04-23T06:16:28Z</time>
      </trkpt>
      <trkpt lat="44.45839" lon="1.89208">
        <ele>227</ele>
        <time>2024-04-23T06:16:31Z</time>
      </trkpt>
      <trkpt lat="44.4584" lon="1.89208">
        <ele>227</ele>
        <time>2024-04-23T06:16:33Z</time>
      </trkpt>
      <trkpt lat="44.45842" lon="1.89206">
        <ele>228</ele>
        <time>2024-04-23T06:16:36Z</time>
      </trkpt>
      <trkpt lat="44.4586" lon="1.89223">
        <ele>228</ele>
        <time>2024-04-23T06:17:05Z</time>
      </trkpt>
      <trkpt lat="44.45905" lon="1.89251">
        <ele>228</ele>
        <time>2024-04-23T06:18:11Z</time>
      </trkpt>
      <trkpt lat="44.45919" lon="1.89254">
        <ele>230</ele>
        <time>2024-04-23T06:18:30Z</time>
      </trkpt>
      <trkpt lat="44.45943" lon="1.89254">
        <ele>234</ele>
        <time>2024-04-23T06:19:02Z</time>
      </trkpt>
      <trkpt lat="44.4596" lon="1.89261">
        <ele>238</ele>
        <time>2024-04-23T06:19:25Z</time>
      </trkpt>
      <trkpt lat="44.46004" lon="1.89273">
        <ele>244</ele>
        <time>2024-04-23T06:20:25Z</time>
      </trkpt>
      <trkpt lat="44.46029" lon="1.89283">
        <ele>249</ele>
        <time>2024-04-23T06:21:00Z</time>
      </trkpt>
      <trkpt lat="44.46056" lon="1.893">
        <ele>251</ele>
        <time>2024-04-23T06:21:39Z</time>
      </trkpt>
      <trkpt lat="44.46075" lon="1.89324">
        <ele>248</ele>
        <time>2024-04-23T06:22:13Z</time>
      </trkpt>
      <trkpt lat="44.46084" lon="1.89337">
        <ele>246</ele>
        <time>2024-04-23T06:22:31Z</time>
      </trkpt>
      <trkpt lat="44.46088" lon="1.89345">
        <ele>248</ele>
        <time>2024-04-23T06:22:40Z</time>
      </trkpt>
      <trkpt lat="44.46121" lon="1.89376">
        <ele>258</ele>
        <time>2024-04-23T06:23:33Z</time>
      </trkpt>
      <trkpt lat="44.46127" lon="1.89391">
        <ele>258</ele>
        <time>2024-04-23T06:23:49Z</time>
      </trkpt>
      <trkpt lat="44.46137" lon="1.89402">
        <ele>259</ele>
        <time>2024-04-23T06:24:06Z</time>
      </trkpt>
      <trkpt lat="44.46144" lon="1.89417">
        <ele>258</ele>
        <time>2024-04-23T06:24:23Z</time>
      </trkpt>
      <trkpt lat="44.46169" lon="1.89481">
        <ele>258</ele>
        <time>2024-04-23T06:25:33Z</time>
      </trkpt>
      <trkpt lat="44.46175" lon="1.89515">
        <ele>260</ele>
        <time>2024-04-23T06:26:06Z</time>
      </trkpt>
      <trkpt lat="44.46189" lon="1.89547">
        <ele>264</ele>
        <time>2024-04-23T06:26:42Z</time>
      </trkpt>
      <trkpt lat="44.46197" lon="1.89577">
        <ele>266</ele>
        <time>2024-04-23T06:27:12Z</time>
      </trkpt>
      <trkpt lat="44.46206" lon="1.89595">
        <ele>268</ele>
        <time>2024-04-23T06:27:33Z</time>
      </trkpt>
      <trkpt lat="44.46218" lon="1.89625">
        <ele>270</ele>
        <time>2024-04-23T06:28:06Z</time>
      </trkpt>
      <trkpt lat="44.46244" lon="1.89681">
        <ele>270</ele>
        <time>2024-04-23T06:29:10Z</time>
      </trkpt>
      <trkpt lat="44.46255" lon="1.89693">
        <ele>270</ele>
        <time>2024-04-23T06:29:28Z</time>
      </trkpt>
      <trkpt lat="44.46285" lon="1.89701">
        <ele>275</ele>
        <time>2024-04-23T06:30:09Z</time>
      </trkpt>
      <trkpt lat="44.46352" lon="1.8969">
        <ele>286</ele>
        <time>2024-04-23T06:31:39Z</time>
      </trkpt>
      <trkpt lat="44.46365" lon="1.89684">
        <ele>287</ele>
        <time>2024-04-23T06:31:57Z</time>
      </trkpt>
      <trkpt lat="44.46379" lon="1.89684">
        <ele>288</ele>
        <time>2024-04-23T06:32:16Z</time>
      </trkpt>
      <trkpt lat="44.46401" lon="1.89675">
        <ele>289</ele>
        <time>2024-04-23T06:32:47Z</time>
      </trkpt>
      <trkpt lat="44.46425" lon="1.89649">
        <ele>292</ele>
        <time>2024-04-23T06:33:27Z</time>
      </trkpt>
      <trkpt lat="44.46428" lon="1.89644">
        <ele>293</ele>
        <time>2024-04-23T06:33:33Z</time>
      </trkpt>
      <trkpt lat="44.46438" lon="1.89632">
        <ele>296</ele>
        <time>2024-04-23T06:33:51Z</time>
      </trkpt>
      <trkpt lat="44.46454" lon="1.89622">
        <ele>298</ele>
        <time>2024-04-23T06:34:14Z</time>
      </trkpt>
      <trkpt lat="44.46464" lon="1.8961">
        <ele>300</ele>
        <time>2024-04-23T06:34:32Z</time>
      </trkpt>
      <trkpt lat="44.46472" lon="1.89582">
        <ele>302</ele>
        <time>2024-04-23T06:35:01Z</time>
      </trkpt>
      <trkpt lat="44.46481" lon="1.89573">
        <ele>303</ele>
        <time>2024-04-23T06:35:15Z</time>
      </trkpt>
      <trkpt lat="44.46495" lon="1.89575">
        <ele>303</ele>
        <time>2024-04-23T06:35:34Z</time>
      </trkpt>
      <trkpt lat="44.46499" lon="1.89595">
        <ele>303</ele>
        <time>2024-04-23T06:35:54Z</time>
      </trkpt>
      <trkpt lat="44.465" lon="1.89621">
        <ele>302</ele>
        <time>2024-04-23T06:36:19Z</time>
      </trkpt>
      <trkpt lat="44.46491" lon="1.89687">
        <ele>301</ele>
        <time>2024-04-23T06:37:23Z</time>
      </trkpt>
      <trkpt lat="44.46492" lon="1.89701">
        <ele>303</ele>
        <time>2024-04-23T06:37:36Z</time>
      </trkpt>
      <trkpt lat="44.46498" lon="1.89708">
        <ele>304</ele>
        <time>2024-04-23T06:37:47Z</time>
      </trkpt>
      <trkpt lat="44.46511" lon="1.89699">
        <ele>304</ele>
        <time>2024-04-23T06:38:06Z</time>
      </trkpt>
      <trkpt lat="44.46521" lon="1.89686">
        <ele>304</ele>
        <time>2024-04-23T06:38:24Z</time>
      </trkpt>
      <trkpt lat="44.46526" lon="1.89684">
        <ele>304</ele>
        <time>2024-04-23T06:38:31Z</time>
      </trkpt>
      <trkpt lat="44.46528" lon="1.89689">
        <ele>305</ele>
        <time>2024-04-23T06:38:36Z</time>
      </trkpt>
      <trkpt lat="44.46529" lon="1.89698">
        <ele>306</ele>
        <time>2024-04-23T06:38:45Z</time>
      </trkpt>
      <trkpt lat="44.46536" lon="1.89696">
        <ele>306</ele>
        <time>2024-04-23T06:38:55Z</time>
      </trkpt>
      <trkpt lat="44.46556" lon="1.89591">
        <ele>306</ele>
        <time>2024-04-23T06:40:38Z</time>
      </trkpt>
      <trkpt lat="44.4656" lon="1.89564">
        <ele>306</ele>
        <time>2024-04-23T06:41:04Z</time>
      </trkpt>
      <trkpt lat="44.46563" lon="1.89553">
        <ele>306</ele>
        <time>2024-04-23T06:41:16Z</time>
      </trkpt>
      <trkpt lat="44.46598" lon="1.89515">
        <ele>307</ele>
        <time>2024-04-23T06:42:15Z</time>
      </trkpt>
      <trkpt lat="44.46623" lon="1.89496">
        <ele>306</ele>
        <time>2024-04-23T06:42:53Z</time>
      </trkpt>
      <trkpt lat="44.46656" lon="1.89465">
        <ele>305</ele>
        <time>2024-04-23T06:43:46Z</time>
      </trkpt>
      <trkpt lat="44.46664" lon="1.89459">
        <ele>305</ele>
        <time>2024-04-23T06:43:58Z</time>
      </trkpt>
      <trkpt lat="44.46679" lon="1.89452">
        <ele>305</ele>
        <time>2024-04-23T06:44:19Z</time>
      </trkpt>
      <trkpt lat="44.46696" lon="1.89463">
        <ele>304</ele>
        <time>2024-04-23T06:44:44Z</time>
      </trkpt>
      <trkpt lat="44.46712" lon="1.89477">
        <ele>304</ele>
        <time>2024-04-23T06:45:09Z</time>
      </trkpt>
      <trkpt lat="44.46766" lon="1.89529">
        <ele>305</ele>
        <time>2024-04-23T06:46:37Z</time>
      </trkpt>
      <trkpt lat="44.46803" lon="1.89573">
        <ele>305</ele>
        <time>2024-04-23T06:47:41Z</time>
      </trkpt>
      <trkpt lat="44.46828" lon="1.89597">
        <ele>306</ele>
        <time>2024-04-23T06:48:22Z</time>
      </trkpt>
      <trkpt lat="44.4686" lon="1.89609">
        <ele>307</ele>
        <time>2024-04-23T06:49:06Z</time>
      </trkpt>
      <trkpt lat="44.46879" lon="1.89597">
        <ele>307</ele>
        <time>2024-04-23T06:49:34Z</time>
      </trkpt>
      <trkpt lat="44.46894" lon="1.89582">
        <ele>307</ele>
        <time>2024-04-23T06:49:58Z</time>
      </trkpt>
      <trkpt lat="44.46906" lon="1.89579">
        <ele>308</ele>
        <time>2024-04-23T06:50:15Z</time>
      </trkpt>
      <trkpt lat="44.46921" lon="1.89596">
        <ele>308</ele>
        <time>2024-04-23T06:50:40Z</time>
      </trkpt>
      <trkpt lat="44.46936" lon="1.89594">
        <ele>310</ele>
        <time>2024-04-23T06:51:00Z</time>
      </trkpt>
      <trkpt lat="44.46954" lon="1.89579">
        <ele>311</ele>
        <time>2024-04-23T06:51:28Z</time>
      </trkpt>
      <trkpt lat="44.46986" lon="1.89568">
        <ele>314</ele>
        <time>2024-04-23T06:52:12Z</time>
      </trkpt>
      <trkpt lat="44.47011" lon="1.89564">
        <ele>315</ele>
        <time>2024-04-23T06:52:46Z</time>
      </trkpt>
      <trkpt lat="44.47028" lon="1.89565">
        <ele>316</ele>
        <time>2024-04-23T06:53:09Z</time>
      </trkpt>
      <trkpt lat="44.47033" lon="1.89567">
        <ele>316</ele>
        <time>2024-04-23T06:53:16Z</time>
      </trkpt>
      <trkpt lat="44.47071" lon="1.8959">
        <ele>316</ele>
        <time>2024-04-23T06:54:11Z</time>
      </trkpt>
      <trkpt lat="44.47084" lon="1.89597">
        <ele>317</ele>
        <time>2024-04-23T06:54:29Z</time>
      </trkpt>
      <trkpt lat="44.47119" lon="1.89627">
        <ele>316</ele>
        <time>2024-04-23T06:55:24Z</time>
      </trkpt>
      <trkpt lat="44.47131" lon="1.89636">
        <ele>315</ele>
        <time>2024-04-23T06:55:42Z</time>
      </trkpt>
      <trkpt lat="44.47162" lon="1.89649">
        <ele>315</ele>
        <time>2024-04-23T06:56:26Z</time>
      </trkpt>
      <trkpt lat="44.47181" lon="1.89656">
        <ele>315</ele>
        <time>2024-04-23T06:56:52Z</time>
      </trkpt>
      <trkpt lat="44.47201" lon="1.89661">
        <ele>315</ele>
        <time>2024-04-23T06:57:19Z</time>
      </trkpt>
      <trkpt lat="44.47223" lon="1.8967">
        <ele>314</ele>
        <time>2024-04-23T06:57:49Z</time>
      </trkpt>
      <trkpt lat="44.47273" lon="1.89701">
        <ele>313</ele>
        <time>2024-04-23T06:59:02Z</time>
      </trkpt>
      <trkpt lat="44.47291" lon="1.89706">
        <ele>312</ele>
        <time>2024-04-23T06:59:27Z</time>
      </trkpt>
      <trkpt lat="44.47328" lon="1.89724">
        <ele>311</ele>
        <time>2024-04-23T07:00:19Z</time>
      </trkpt>
      <trkpt lat="44.47346" lon="1.89731">
        <ele>311</ele>
        <time>2024-04-23T07:00:44Z</time>
      </trkpt>
      <trkpt lat="44.47364" lon="1.89732">
        <ele>311</ele>
        <time>2024-04-23T07:01:08Z</time>
      </trkpt>
      <trkpt lat="44.47402" lon="1.89744">
        <ele>311</ele>
        <time>2024-04-23T07:02:00Z</time>
      </trkpt>
      <trkpt lat="44.47415" lon="1.89758">
        <ele>311</ele>
        <time>2024-04-23T07:02:22Z</time>
      </trkpt>
      <trkpt lat="44.47413" lon="1.89756">
        <ele>311</ele>
        <time>2024-04-23T07:02:25Z</time>
      </trkpt>
      <trkpt lat="44.47418" lon="1.8976">
        <ele>311</ele>
        <time>2024-04-23T07:02:33Z</time>
      </trkpt>
      <trkpt lat="44.47436" lon="1.89764">
        <ele>311</ele>
        <time>2024-04-23T07:02:57Z</time>
      </trkpt>
      <trkpt lat="44.47481" lon="1.89762">
        <ele>311</ele>
        <time>2024-04-23T07:03:57Z</time>
      </trkpt>
      <trkpt lat="44.475" lon="1.89757">
        <ele>311</ele>
        <time>2024-04-23T07:04:23Z</time>
      </trkpt>
      <trkpt lat="44.47583" lon="1.89747">
        <ele>311</ele>
        <time>2024-04-23T07:06:14Z</time>
      </trkpt>
      <trkpt lat="44.47606" lon="1.89748">
        <ele>310</ele>
        <time>2024-04-23T07:06:45Z</time>
      </trkpt>
      <trkpt lat="44.47632" lon="1.89758">
        <ele>309</ele>
        <time>2024-04-23T07:07:21Z</time>
      </trkpt>
      <trkpt lat="44.47698" lon="1.89762">
        <ele>307</ele>
        <time>2024-04-23T07:08:49Z</time>
      </trkpt>
      <trkpt lat="44.47718" lon="1.89757">
        <ele>306</ele>
        <time>2024-04-23T07:09:16Z</time>
      </trkpt>
      <trkpt lat="44.47735" lon="1.89742">
        <ele>305</ele>
        <time>2024-04-23T07:09:43Z</time>
      </trkpt>
      <trkpt lat="44.47748" lon="1.89735">
        <ele>304</ele>
        <time>2024-04-23T07:10:02Z</time>
      </trkpt>
      <trkpt lat="44.47771" lon="1.89731">
        <ele>305</ele>
        <time>2024-04-23T07:10:33Z</time>
      </trkpt>
      <trkpt lat="44.47809" lon="1.89731">
        <ele>306</ele>
        <time>2024-04-23T07:11:23Z</time>
      </trkpt>
      <trkpt lat="44.47848" lon="1.89737">
        <ele>307</ele>
        <time>2024-04-23T07:12:16Z</time>
      </trkpt>
      <trkpt lat="44.47851" lon="1.89735">
        <ele>307</ele>
        <time>2024-04-23T07:12:20Z</time>
      </trkpt>
      <trkpt lat="44.47856" lon="1.89737">
        <ele>307</ele>
        <time>2024-04-23T07:12:27Z</time>
      </trkpt>
      <trkpt lat="44.47862" lon="1.89733">
        <ele>307</ele>
        <time>2024-04-23T07:12:36Z</time>
      </trkpt>
      <trkpt lat="44.47859" lon="1.89735">
        <ele>307</ele>
        <time>2024-04-23T07:12:40Z</time>
      </trkpt>
      <trkpt lat="44.47889" lon="1.8972">
        <ele>307</ele>
        <time>2024-04-23T07:13:23Z</time>
      </trkpt>
      <trkpt lat="44.47971" lon="1.89712">
        <ele>306</ele>
        <time>2024-04-23T07:15:12Z</time>
      </trkpt>
      <trkpt lat="44.47974" lon="1.8971">
        <ele>306</ele>
        <time>2024-04-23T07:15:17Z</time>
      </trkpt>
      <trkpt lat="44.47981" lon="1.89713">
        <ele>306</ele>
        <time>2024-04-23T07:15:27Z</time>
      </trkpt>
      <trkpt lat="44.47994" lon="1.89714">
        <ele>306</ele>
        <time>2024-04-23T07:15:44Z</time>
      </trkpt>
      <trkpt lat="44.47995" lon="1.89712">
        <ele>306</ele>
        <time>2024-04-23T07:15:46Z</time>
      </trkpt>
      <trkpt lat="44.48001" lon="1.89715">
        <ele>306</ele>
        <time>2024-04-23T07:15:55Z</time>
      </trkpt>
      <trkpt lat="44.48009" lon="1.89716">
        <ele>305</ele>
        <time>2024-04-23T07:16:06Z</time>
      </trkpt>
      <trkpt lat="44.48031" lon="1.89726">
        <ele>305</ele>
        <time>2024-04-23T07:16:36Z</time>
      </trkpt>
      <trkpt lat="44.48101" lon="1.89781">
        <ele>304</ele>
        <time>2024-04-23T07:18:24Z</time>
      </trkpt>
      <trkpt lat="44.48115" lon="1.89798">
        <ele>305</ele>
        <time>2024-04-23T07:18:48Z</time>
      </trkpt>
      <trkpt lat="44.48146" lon="1.89816">
        <ele>304</ele>
        <time>2024-04-23T07:19:33Z</time>
      </trkpt>
      <trkpt lat="44.48166" lon="1.89824">
        <ele>304</ele>
        <time>2024-04-23T07:20:01Z</time>
      </trkpt>
      <trkpt lat="44.4821" lon="1.89838">
        <ele>302</ele>
        <time>2024-04-23T07:21:01Z</time>
      </trkpt>
      <trkpt lat="44.48223" lon="1.89844">
        <ele>302</ele>
        <time>2024-04-23T07:21:19Z</time>
      </trkpt>
      <trkpt lat="44.48259" lon="1.89868">
        <ele>302</ele>
        <time>2024-04-23T07:22:12Z</time>
      </trkpt>
      <trkpt lat="44.483" lon="1.89874">
        <ele>302</ele>
        <time>2024-04-23T07:23:08Z</time>
      </trkpt>
      <trkpt lat="44.48311" lon="1.89874">
        <ele>302</ele>
        <time>2024-04-23T07:23:22Z</time>
      </trkpt>
      <trkpt lat="44.48314" lon="1.89876">
        <ele>302</ele>
        <time>2024-04-23T07:23:27Z</time>
      </trkpt>
      <trkpt lat="44.48318" lon="1.89884">
        <ele>302</ele>
        <time>2024-04-23T07:23:36Z</time>
      </trkpt>
      <trkpt lat="44.4832" lon="1.89894">
        <ele>303</ele>
        <time>2024-04-23T07:23:46Z</time>
      </trkpt>
      <trkpt lat="44.48317" lon="1.89907">
        <ele>304</ele>
        <time>2024-04-23T07:23:59Z</time>
      </trkpt>
      <trkpt lat="44.4832" lon="1.8992">
        <ele>304</ele>
        <time>2024-04-23T07:24:12Z</time>
      </trkpt>
      <trkpt lat="44.48319" lon="1.89912">
        <ele>304</ele>
        <time>2024-04-23T07:24:20Z</time>
      </trkpt>
      <trkpt lat="44.48323" lon="1.89949">
        <ele>305</ele>
        <time>2024-04-23T07:24:55Z</time>
      </trkpt>
      <trkpt lat="44.48328" lon="1.90014">
        <ele>308</ele>
        <time>2024-04-23T07:25:57Z</time>
      </trkpt>
      <trkpt lat="44.48333" lon="1.90038">
        <ele>309</ele>
        <time>2024-04-23T07:26:21Z</time>
      </trkpt>
      <trkpt lat="44.48337" lon="1.90054">
        <ele>310</ele>
        <time>2024-04-23T07:26:37Z</time>
      </trkpt>
      <trkpt lat="44.48373" lon="1.9015">
        <ele>312</ele>
        <time>2024-04-23T07:28:21Z</time>
      </trkpt>
      <trkpt lat="44.48379" lon="1.90178">
        <ele>312</ele>
        <time>2024-04-23T07:28:48Z</time>
      </trkpt>
      <trkpt lat="44.48396" lon="1.9027">
        <ele>312</ele>
        <time>2024-04-23T07:30:19Z</time>
      </trkpt>
      <trkpt lat="44.48414" lon="1.90352">
        <ele>309</ele>
        <time>2024-04-23T07:31:41Z</time>
      </trkpt>
      <trkpt lat="44.48425" lon="1.90462">
        <ele>306</ele>
        <time>2024-04-23T07:33:26Z</time>
      </trkpt>
      <trkpt lat="44.48423" lon="1.90474">
        <ele>305</ele>
        <time>2024-04-23T07:33:38Z</time>
      </trkpt>
      <trkpt lat="44.48429" lon="1.90476">
        <ele>305</ele>
        <time>2024-04-23T07:33:46Z</time>
      </trkpt>
      <trkpt lat="44.48447" lon="1.90488">
        <ele>306</ele>
        <time>2024-04-23T07:34:13Z</time>
      </trkpt>
      <trkpt lat="44.48464" lon="1.9051">
        <ele>307</ele>
        <time>2024-04-23T07:34:44Z</time>
      </trkpt>
      <trkpt lat="44.48472" lon="1.90514">
        <ele>308</ele>
        <time>2024-04-23T07:34:55Z</time>
      </trkpt>
      <trkpt lat="44.48484" lon="1.90526">
        <ele>309</ele>
        <time>2024-04-23T07:35:15Z</time>
      </trkpt>
      <trkpt lat="44.48489" lon="1.90524">
        <ele>309</ele>
        <time>2024-04-23T07:35:22Z</time>
      </trkpt>
      <trkpt lat="44.485" lon="1.90512">
        <ele>309</ele>
        <time>2024-04-23T07:35:40Z</time>
      </trkpt>
      <trkpt lat="44.485" lon="1.90508">
        <ele>309</ele>
        <time>2024-04-23T07:35:44Z</time>
      </trkpt>
      <trkpt lat="44.48515" lon="1.90511">
        <ele>310</ele>
        <time>2024-04-23T07:36:04Z</time>
      </trkpt>
      <trkpt lat="44.48531" lon="1.90516">
        <ele>310</ele>
        <time>2024-04-23T07:36:26Z</time>
      </trkpt>
      <trkpt lat="44.48533" lon="1.90536">
        <ele>311</ele>
        <time>2024-04-23T07:36:45Z</time>
      </trkpt>
      <trkpt lat="44.48531" lon="1.90561">
        <ele>311</ele>
        <time>2024-04-23T07:37:09Z</time>
      </trkpt>
      <trkpt lat="44.4849" lon="1.90817">
        <ele>310</ele>
        <time>2024-04-23T07:41:19Z</time>
      </trkpt>
      <trkpt lat="44.48488" lon="1.90875">
        <ele>304</ele>
        <time>2024-04-23T07:42:15Z</time>
      </trkpt>
      <trkpt lat="44.4849" lon="1.90911">
        <ele>299</ele>
        <time>2024-04-23T07:42:49Z</time>
      </trkpt>
      <trkpt lat="44.48484" lon="1.90939">
        <ele>297</ele>
        <time>2024-04-23T07:43:17Z</time>
      </trkpt>
      <trkpt lat="44.48481" lon="1.90946">
        <ele>296</ele>
        <time>2024-04-23T07:43:25Z</time>
      </trkpt>
      <trkpt lat="44.48474" lon="1.90952">
        <ele>298</ele>
        <time>2024-04-23T07:43:35Z</time>
      </trkpt>
      <trkpt lat="44.48475" lon="1.90967">
        <ele>295</ele>
        <time>2024-04-23T07:43:50Z</time>
      </trkpt>
      <trkpt lat="44.48464" lon="1.90994">
        <ele>296</ele>
        <time>2024-04-23T07:44:19Z</time>
      </trkpt>
      <trkpt lat="44.48467" lon="1.9103">
        <ele>290</ele>
        <time>2024-04-23T07:44:54Z</time>
      </trkpt>
      <trkpt lat="44.48471" lon="1.91044">
        <ele>286</ele>
        <time>2024-04-23T07:45:08Z</time>
      </trkpt>
      <trkpt lat="44.4847" lon="1.91035">
        <ele>288</ele>
        <time>2024-04-23T07:45:17Z</time>
      </trkpt>
      <trkpt lat="44.48479" lon="1.91036">
        <ele>283</ele>
        <time>2024-04-23T07:45:29Z</time>
      </trkpt>
      <trkpt lat="44.48477" lon="1.91034">
        <ele>284</ele>
        <time>2024-04-23T07:45:32Z</time>
      </trkpt>
      <trkpt lat="44.48477" lon="1.91036">
        <ele>284</ele>
        <time>2024-04-23T07:45:34Z</time>
      </trkpt>
      <trkpt lat="44.48472" lon="1.91033">
        <ele>287</ele>
        <time>2024-04-23T07:45:41Z</time>
      </trkpt>
      <trkpt lat="44.48469" lon="1.91037">
        <ele>288</ele>
        <time>2024-04-23T07:45:47Z</time>
      </trkpt>
      <trkpt lat="44.48471" lon="1.91043">
        <ele>286</ele>
        <time>2024-04-23T07:45:53Z</time>
      </trkpt>
      <trkpt lat="44.48472" lon="1.9103">
        <ele>287</ele>
        <time>2024-04-23T07:46:06Z</time>
      </trkpt>
      <trkpt lat="44.4847" lon="1.91034">
        <ele>288</ele>
        <time>2024-04-23T07:46:10Z</time>
      </trkpt>
      <trkpt lat="44.48466" lon="1.91027">
        <ele>291</ele>
        <time>2024-04-23T07:46:19Z</time>
      </trkpt>
      <trkpt lat="44.48463" lon="1.91014">
        <ele>294</ele>
        <time>2024-04-23T07:46:32Z</time>
      </trkpt>
      <trkpt lat="44.48461" lon="1.9101">
        <ele>296</ele>
        <time>2024-04-23T07:46:37Z</time>
      </trkpt>
      <trkpt lat="44.48461" lon="1.90998">
        <ele>297</ele>
        <time>2024-04-23T07:46:48Z</time>
      </trkpt>
      <trkpt lat="44.48463" lon="1.90977">
        <ele>299</ele>
        <time>2024-04-23T07:47:08Z</time>
      </trkpt>
      <trkpt lat="44.48469" lon="1.90951">
        <ele>299</ele>
        <time>2024-04-23T07:47:34Z</time>
      </trkpt>
      <trkpt lat="44.48476" lon="1.9093">
        <ele>300</ele>
        <time>2024-04-23T07:47:56Z</time>
      </trkpt>
      <trkpt lat="44.48481" lon="1.90929">
        <ele>299</ele>
        <time>2024-04-23T07:48:03Z</time>
      </trkpt>
      <trkpt lat="44.48485" lon="1.90932">
        <ele>297</ele>
        <time>2024-04-23T07:48:09Z</time>
      </trkpt>
      <trkpt lat="44.48485" lon="1.90929">
        <ele>298</ele>
        <time>2024-04-23T07:48:12Z</time>
      </trkpt>
      <trkpt lat="44.48478" lon="1.90916">
        <ele>301</ele>
        <time>2024-04-23T07:48:27Z</time>
      </trkpt>
      <trkpt lat="44.48482" lon="1.90905">
        <ele>302</ele>
        <time>2024-04-23T07:48:39Z</time>
      </trkpt>
      <trkpt lat="44.48496" lon="1.90905">
        <ele>299</ele>
        <time>2024-04-23T07:48:58Z</time>
      </trkpt>
      <trkpt lat="44.48492" lon="1.90904">
        <ele>300</ele>
        <time>2024-04-23T07:49:03Z</time>
      </trkpt>
      <trkpt lat="44.48489" lon="1.90898">
        <ele>301</ele>
        <time>2024-04-23T07:49:10Z</time>
      </trkpt>
      <trkpt lat="44.48493" lon="1.90889">
        <ele>302</ele>
        <time>2024-04-23T07:49:20Z</time>
      </trkpt>
      <trkpt lat="44.48511" lon="1.90884">
        <ele>296</ele>
        <time>2024-04-23T07:49:45Z</time>
      </trkpt>
      <trkpt lat="44.48522" lon="1.90871">
        <ele>294</ele>
        <time>2024-04-23T07:50:04Z</time>
      </trkpt>
      <trkpt lat="44.48547" lon="1.90858">
        <ele>288</ele>
        <time>2024-04-23T07:50:40Z</time>
      </trkpt>
      <trkpt lat="44.48559" lon="1.90845">
        <ele>288</ele>
        <time>2024-04-23T07:51:00Z</time>
      </trkpt>
      <trkpt lat="44.48565" lon="1.9083">
        <ele>292</ele>
        <time>2024-04-23T07:51:16Z</time>
      </trkpt>
      <trkpt lat="44.48573" lon="1.9082">
        <ele>292</ele>
        <time>2024-04-23T07:51:30Z</time>
      </trkpt>
      <trkpt lat="44.48574" lon="1.90822">
        <ele>291</ele>
        <time>2024-04-23T07:51:33Z</time>
      </trkpt>
      <trkpt lat="44.48574" lon="1.90821">
        <ele>292</ele>
        <time>2024-04-23T07:51:34Z</time>
      </trkpt>
      <trkpt lat="44.48568" lon="1.90817">
        <ele>294</ele>
        <time>2024-04-23T07:51:43Z</time>
      </trkpt>
      <trkpt lat="44.48572" lon="1.90794">
        <ele>298</ele>
        <time>2024-04-23T07:52:05Z</time>
      </trkpt>
      <trkpt lat="44.48595" lon="1.90763">
        <ele>298</ele>
        <time>2024-04-23T07:52:48Z</time>
      </trkpt>
      <trkpt lat="44.48603" lon="1.90756">
        <ele>296</ele>
        <time>2024-04-23T07:53:00Z</time>
      </trkpt>
      <trkpt lat="44.48615" lon="1.90755">
        <ele>291</ele>
        <time>2024-04-23T07:53:16Z</time>
      </trkpt>
      <trkpt lat="44.48625" lon="1.90761">
        <ele>283</ele>
        <time>2024-04-23T07:53:31Z</time>
      </trkpt>
      <trkpt lat="44.48626" lon="1.90759">
        <ele>284</ele>
        <time>2024-04-23T07:53:33Z</time>
      </trkpt>
      <trkpt lat="44.48624" lon="1.9076">
        <ele>284</ele>
        <time>2024-04-23T07:53:36Z</time>
      </trkpt>
      <trkpt lat="44.48623" lon="1.90756">
        <ele>286</ele>
        <time>2024-04-23T07:53:40Z</time>
      </trkpt>
      <trkpt lat="44.48628" lon="1.90745">
        <ele>287</ele>
        <time>2024-04-23T07:53:53Z</time>
      </trkpt>
      <trkpt lat="44.48621" lon="1.9072">
        <ele>296</ele>
        <time>2024-04-23T07:54:18Z</time>
      </trkpt>
      <trkpt lat="44.48621" lon="1.90716">
        <ele>297</ele>
        <time>2024-04-23T07:54:22Z</time>
      </trkpt>
      <trkpt lat="44.48632" lon="1.90705">
        <ele>297</ele>
        <time>2024-04-23T07:54:40Z</time>
      </trkpt>
      <trkpt lat="44.48663" lon="1.90686">
        <ele>296</ele>
        <time>2024-04-23T07:55:25Z</time>
      </trkpt>
      <trkpt lat="44.48698" lon="1.90674">
        <ele>287</ele>
        <time>2024-04-23T07:56:13Z</time>
      </trkpt>
      <trkpt lat="44.48719" lon="1.90662">
        <ele>284</ele>
        <time>2024-04-23T07:56:43Z</time>
      </trkpt>
      <trkpt lat="44.48732" lon="1.90658">
        <ele>280</ele>
        <time>2024-04-23T07:57:01Z</time>
      </trkpt>
      <trkpt lat="44.48739" lon="1.90651">
        <ele>280</ele>
        <time>2024-04-23T07:57:13Z</time>
      </trkpt>
      <trkpt lat="44.48749" lon="1.90631">
        <ele>285</ele>
        <time>2024-04-23T07:57:36Z</time>
      </trkpt>
      <trkpt lat="44.48752" lon="1.90626">
        <ele>286</ele>
        <time>2024-04-23T07:57:42Z</time>
      </trkpt>
      <trkpt lat="44.48752" lon="1.90624">
        <ele>286</ele>
        <time>2024-04-23T07:57:44Z</time>
      </trkpt>
      <trkpt lat="44.48745" lon="1.90602">
        <ele>298</ele>
        <time>2024-04-23T07:58:07Z</time>
      </trkpt>
      <trkpt lat="44.4875" lon="1.90587">
        <ele>303</ele>
        <time>2024-04-23T07:58:23Z</time>
      </trkpt>
      <trkpt lat="44.48754" lon="1.90585">
        <ele>303</ele>
        <time>2024-04-23T07:58:28Z</time>
      </trkpt>
      <trkpt lat="44.48765" lon="1.90577">
        <ele>299</ele>
        <time>2024-04-23T07:58:45Z</time>
      </trkpt>
      <trkpt lat="44.48774" lon="1.90568">
        <ele>297</ele>
        <time>2024-04-23T07:59:00Z</time>
      </trkpt>
      <trkpt lat="44.48792" lon="1.90562">
        <ele>291</ele>
        <time>2024-04-23T07:59:24Z</time>
      </trkpt>
      <trkpt lat="44.48861" lon="1.90488">
        <ele>290</ele>
        <time>2024-04-23T08:01:20Z</time>
      </trkpt>
      <trkpt lat="44.48889" lon="1.90476">
        <ele>286</ele>
        <time>2024-04-23T08:01:59Z</time>
      </trkpt>
      <trkpt lat="44.48904" lon="1.90472">
        <ele>284</ele>
        <time>2024-04-23T08:02:20Z</time>
      </trkpt>
      <trkpt lat="44.4892" lon="1.90464">
        <ele>281</ele>
        <time>2024-04-23T08:02:42Z</time>
      </trkpt>
      <trkpt lat="44.48934" lon="1.9046">
        <ele>274</ele>
        <time>2024-04-23T08:03:01Z</time>
      </trkpt>
      <trkpt lat="44.48945" lon="1.90453">
        <ele>271</ele>
        <time>2024-04-23T08:03:18Z</time>
      </trkpt>
      <trkpt lat="44.4895" lon="1.9044">
        <ele>273</ele>
        <time>2024-04-23T08:03:32Z</time>
      </trkpt>
      <trkpt lat="44.48961" lon="1.90431">
        <ele>273</ele>
        <time>2024-04-23T08:03:49Z</time>
      </trkpt>
      <trkpt lat="44.48993" lon="1.90395">
        <ele>275</ele>
        <time>2024-04-23T08:04:43Z</time>
      </trkpt>
      <trkpt lat="44.49003" lon="1.90386">
        <ele>274</ele>
        <time>2024-04-23T08:04:59Z</time>
      </trkpt>
      <trkpt lat="44.49016" lon="1.90379">
        <ele>269</ele>
        <time>2024-04-23T08:05:18Z</time>
      </trkpt>
      <trkpt lat="44.49029" lon="1.90364">
        <ele>269</ele>
        <time>2024-04-23T08:05:40Z</time>
      </trkpt>
      <trkpt lat="44.49034" lon="1.90354">
        <ele>271</ele>
        <time>2024-04-23T08:05:52Z</time>
      </trkpt>
      <trkpt lat="44.49049" lon="1.90339">
        <ele>275</ele>
        <time>2024-04-23T08:06:17Z</time>
      </trkpt>
      <trkpt lat="44.49063" lon="1.90329">
        <ele>276</ele>
        <time>2024-04-23T08:06:38Z</time>
      </trkpt>
      <trkpt lat="44.49082" lon="1.90318">
        <ele>275</ele>
        <time>2024-04-23T08:07:05Z</time>
      </trkpt>
      <trkpt lat="44.49088" lon="1.90317">
        <ele>273</ele>
        <time>2024-04-23T08:07:13Z</time>
      </trkpt>
      <trkpt lat="44.49122" lon="1.90292">
        <ele>266</ele>
        <time>2024-04-23T08:08:04Z</time>
      </trkpt>
      <trkpt lat="44.49165" lon="1.90278">
        <ele>258</ele>
        <time>2024-04-23T08:09:03Z</time>
      </trkpt>
      <trkpt lat="44.49173" lon="1.90273">
        <ele>257</ele>
        <time>2024-04-23T08:09:15Z</time>
      </trkpt>
      <trkpt lat="44.49189" lon="1.90271">
        <ele>254</ele>
        <time>2024-04-23T08:09:36Z</time>
      </trkpt>
      <trkpt lat="44.49204" lon="1.90272">
        <ele>251</ele>
        <time>2024-04-23T08:09:56Z</time>
      </trkpt>
      <trkpt lat="44.49219" lon="1.90277">
        <ele>248</ele>
        <time>2024-04-23T08:10:17Z</time>
      </trkpt>
      <trkpt lat="44.49226" lon="1.90284">
        <ele>245</ele>
        <time>2024-04-23T08:10:28Z</time>
      </trkpt>
      <trkpt lat="44.49234" lon="1.90285">
        <ele>244</ele>
        <time>2024-04-23T08:10:39Z</time>
      </trkpt>
      <trkpt lat="44.49246" lon="1.90284">
        <ele>242</ele>
        <time>2024-04-23T08:10:55Z</time>
      </trkpt>
      <trkpt lat="44.49273" lon="1.90277">
        <ele>237</ele>
        <time>2024-04-23T08:11:32Z</time>
      </trkpt>
      <trkpt lat="44.49285" lon="1.90267">
        <ele>237</ele>
        <time>2024-04-23T08:11:50Z</time>
      </trkpt>
      <trkpt lat="44.49315" lon="1.9026">
        <ele>232</ele>
        <time>2024-04-23T08:12:31Z</time>
      </trkpt>
      <trkpt lat="44.49327" lon="1.90262">
        <ele>229</ele>
        <time>2024-04-23T08:12:47Z</time>
      </trkpt>
      <trkpt lat="44.49332" lon="1.90259">
        <ele>229</ele>
        <time>2024-04-23T08:12:54Z</time>
      </trkpt>
      <trkpt lat="44.49364" lon="1.90263">
        <ele>221</ele>
        <time>2024-04-23T08:13:37Z</time>
      </trkpt>
      <trkpt lat="44.49368" lon="1.90265">
        <ele>219</ele>
        <time>2024-04-23T08:13:43Z</time>
      </trkpt>
      <trkpt lat="44.49371" lon="1.90265">
        <ele>218</ele>
        <time>2024-04-23T08:13:47Z</time>
      </trkpt>
      <trkpt lat="44.49371" lon="1.9027">
        <ele>217</ele>
        <time>2024-04-23T08:13:52Z</time>
      </trkpt>
      <trkpt lat="44.49373" lon="1.90269">
        <ele>217</ele>
        <time>2024-04-23T08:13:55Z</time>
      </trkpt>
      <trkpt lat="44.49373" lon="1.90265">
        <ele>218</ele>
        <time>2024-04-23T08:13:58Z</time>
      </trkpt>
      <trkpt lat="44.4937" lon="1.90266">
        <ele>218</ele>
        <time>2024-04-23T08:14:02Z</time>
      </trkpt>
      <trkpt lat="44.4937" lon="1.90265">
        <ele>219</ele>
        <time>2024-04-23T08:14:03Z</time>
      </trkpt>
      <trkpt lat="44.49376" lon="1.90267">
        <ele>217</ele>
        <time>2024-04-23T08:14:12Z</time>
      </trkpt>
      <trkpt lat="44.49385" lon="1.90264">
        <ele>216</ele>
        <time>2024-04-23T08:14:24Z</time>
      </trkpt>
      <trkpt lat="44.49405" lon="1.90248">
        <ele>216</ele>
        <time>2024-04-23T08:14:55Z</time>
      </trkpt>
      <trkpt lat="44.49419" lon="1.90245">
        <ele>214</ele>
        <time>2024-04-23T08:15:14Z</time>
      </trkpt>
      <trkpt lat="44.49428" lon="1.90252">
        <ele>211</ele>
        <time>2024-04-23T08:15:27Z</time>
      </trkpt>
      <trkpt lat="44.49427" lon="1.9025">
        <ele>212</ele>
        <time>2024-04-23T08:15:30Z</time>
      </trkpt>
      <trkpt lat="44.49436" lon="1.90239">
        <ele>210</ele>
        <time>2024-04-23T08:15:46Z</time>
      </trkpt>
      <trkpt lat="44.49463" lon="1.90243">
        <ele>204</ele>
        <time>2024-04-23T08:16:22Z</time>
      </trkpt>
      <trkpt lat="44.49481" lon="1.9024">
        <ele>201</ele>
        <time>2024-04-23T08:16:46Z</time>
      </trkpt>
      <trkpt lat="44.49519" lon="1.90224">
        <ele>196</ele>
        <time>2024-04-23T08:17:39Z</time>
      </trkpt>
      <trkpt lat="44.49535" lon="1.90215">
        <ele>194</ele>
        <time>2024-04-23T08:18:02Z</time>
      </trkpt>
      <trkpt lat="44.49551" lon="1.90203">
        <ele>193</ele>
        <time>2024-04-23T08:18:26Z</time>
      </trkpt>
      <trkpt lat="44.49568" lon="1.90195">
        <ele>192</ele>
        <time>2024-04-23T08:18:50Z</time>
      </trkpt>
      <trkpt lat="44.4958" lon="1.90196">
        <ele>190</ele>
        <time>2024-04-23T08:19:06Z</time>
      </trkpt>
      <trkpt lat="44.49581" lon="1.90185">
        <ele>192</ele>
        <time>2024-04-23T08:19:17Z</time>
      </trkpt>
      <trkpt lat="44.4956" lon="1.90153">
        <ele>198</ele>
        <time>2024-04-23T08:19:58Z</time>
      </trkpt>
      <trkpt lat="44.49557" lon="1.90138">
        <ele>200</ele>
        <time>2024-04-23T08:20:13Z</time>
      </trkpt>
      <trkpt lat="44.49557" lon="1.90133">
        <ele>200</ele>
        <time>2024-04-23T08:20:18Z</time>
      </trkpt>
      <trkpt lat="44.49564" lon="1.90109">
        <ele>200</ele>
        <time>2024-04-23T08:20:42Z</time>
      </trkpt>
      <trkpt lat="44.49594" lon="1.90048">
        <ele>196</ele>
        <time>2024-04-23T08:21:53Z</time>
      </trkpt>
      <trkpt lat="44.4962" lon="1.89988">
        <ele>192</ele>
        <time>2024-04-23T08:23:00Z</time>
      </trkpt>
      <trkpt lat="44.49633" lon="1.89964">
        <ele>191</ele>
        <time>2024-04-23T08:23:28Z</time>
      </trkpt>
      <trkpt lat="44.4965" lon="1.8994">
        <ele>191</ele>
        <time>2024-04-23T08:24:01Z</time>
      </trkpt>
      <trkpt lat="44.49679" lon="1.89904">
        <ele>190</ele>
        <time>2024-04-23T08:24:52Z</time>
      </trkpt>
      <trkpt lat="44.49705" lon="1.89874">
        <ele>191</ele>
        <time>2024-04-23T08:25:37Z</time>
      </trkpt>
      <trkpt lat="44.49712" lon="1.89861">
        <ele>191</ele>
        <time>2024-04-23T08:25:53Z</time>
      </trkpt>
      <trkpt lat="44.49716" lon="1.89844">
        <ele>192</ele>
        <time>2024-04-23T08:26:10Z</time>
      </trkpt>
      <trkpt lat="44.49717" lon="1.89824">
        <ele>193</ele>
        <time>2024-04-23T08:26:29Z</time>
      </trkpt>
      <trkpt lat="44.49715" lon="1.89805">
        <ele>193</ele>
        <time>2024-04-23T08:26:47Z</time>
      </trkpt>
      <trkpt lat="44.49704" lon="1.89734">
        <ele>194</ele>
        <time>2024-04-23T08:27:56Z</time>
      </trkpt>
      <trkpt lat="44.49696" lon="1.89715">
        <ele>195</ele>
        <time>2024-04-23T08:28:17Z</time>
      </trkpt>
      <trkpt lat="44.4968" lon="1.89719">
        <ele>195</ele>
        <time>2024-04-23T08:28:39Z</time>
      </trkpt>
      <trkpt lat="44.49669" lon="1.89726">
        <ele>196</ele>
        <time>2024-04-23T08:28:55Z</time>
      </trkpt>
      <trkpt lat="44.49652" lon="1.89732">
        <ele>198</ele>
        <time>2024-04-23T08:29:18Z</time>
      </trkpt>
      <trkpt lat="44.49643" lon="1.89734">
        <ele>198</ele>
        <time>2024-04-23T08:29:31Z</time>
      </trkpt>
      <trkpt lat="44.49624" lon="1.89732">
        <ele>200</ele>
        <time>2024-04-23T08:29:56Z</time>
      </trkpt>
      <trkpt lat="44.49609" lon="1.8973">
        <ele>201</ele>
        <time>2024-04-23T08:30:16Z</time>
      </trkpt>
      <trkpt lat="44.49593" lon="1.89723">
        <ele>202</ele>
        <time>2024-04-23T08:30:39Z</time>
      </trkpt>
      <trkpt lat="44.4957" lon="1.89709">
        <ele>205</ele>
        <time>2024-04-23T08:31:12Z</time>
      </trkpt>
      <trkpt lat="44.49563" lon="1.89702">
        <ele>206</ele>
        <time>2024-04-23T08:31:23Z</time>
      </trkpt>
      <trkpt lat="44.49557" lon="1.89692">
        <ele>207</ele>
        <time>2024-04-23T08:31:36Z</time>
      </trkpt>
      <trkpt lat="44.49556" lon="1.8968">
        <ele>207</ele>
        <time>2024-04-23T08:31:47Z</time>
      </trkpt>
      <trkpt lat="44.49558" lon="1.89658">
        <ele>206</ele>
        <time>2024-04-23T08:32:09Z</time>
      </trkpt>
      <trkpt lat="44.49556" lon="1.89627">
        <ele>205</ele>
        <time>2024-04-23T08:32:38Z</time>
      </trkpt>
      <trkpt lat="44.49537" lon="1.89517">
        <ele>205</ele>
        <time>2024-04-23T08:34:26Z</time>
      </trkpt>
      <trkpt lat="44.49535" lon="1.89473">
        <ele>202</ele>
        <time>2024-04-23T08:35:08Z</time>
      </trkpt>
      <trkpt lat="44.49531" lon="1.89464">
        <ele>202</ele>
        <time>2024-04-23T08:35:18Z</time>
      </trkpt>
      <trkpt lat="44.49533" lon="1.89456">
        <ele>201</ele>
        <time>2024-04-23T08:35:26Z</time>
      </trkpt>
      <trkpt lat="44.49531" lon="1.89438">
        <ele>200</ele>
        <time>2024-04-23T08:35:43Z</time>
      </trkpt>
      <trkpt lat="44.49526" lon="1.89423">
        <ele>200</ele>
        <time>2024-04-23T08:35:59Z</time>
      </trkpt>
      <trkpt lat="44.49532" lon="1.89426">
        <ele>199</ele>
        <time>2024-04-23T08:36:08Z</time>
      </trkpt>
      <trkpt lat="44.49536" lon="1.89414">
        <ele>197</ele>
        <time>2024-04-23T08:36:20Z</time>
      </trkpt>
      <trkpt lat="44.49556" lon="1.89373">
        <ele>192</ele>
        <time>2024-04-23T08:37:08Z</time>
      </trkpt>
      <trkpt lat="44.49564" lon="1.89349">
        <ele>190</ele>
        <time>2024-04-23T08:37:33Z</time>
      </trkpt>
      <trkpt lat="44.49563" lon="1.89343">
        <ele>189</ele>
        <time>2024-04-23T08:37:39Z</time>
      </trkpt>
      <trkpt lat="44.49533" lon="1.89306">
        <ele>188</ele>
        <time>2024-04-23T08:38:32Z</time>
      </trkpt>
      <trkpt lat="44.49515" lon="1.8929">
        <ele>186</ele>
        <time>2024-04-23T08:39:00Z</time>
      </trkpt>
      <trkpt lat="44.4949" lon="1.89278">
        <ele>185</ele>
        <time>2024-04-23T08:39:36Z</time>
      </trkpt>
      <trkpt lat="44.49449" lon="1.89273">
        <ele>188</ele>
        <time>2024-04-23T08:40:31Z</time>
      </trkpt>
      <trkpt lat="44.49434" lon="1.89265">
        <ele>188</ele>
        <time>2024-04-23T08:40:52Z</time>
      </trkpt>
      <trkpt lat="44.49424" lon="1.89248">
        <ele>186</ele>
        <time>2024-04-23T08:41:13Z</time>
      </trkpt>
      <trkpt lat="44.4942" lon="1.89233">
        <ele>186</ele>
        <time>2024-04-23T08:41:28Z</time>
      </trkpt>
      <trkpt lat="44.49417" lon="1.89216">
        <ele>186</ele>
        <time>2024-04-23T08:41:45Z</time>
      </trkpt>
      <trkpt lat="44.49396" lon="1.89208">
        <ele>189</ele>
        <time>2024-04-23T08:42:14Z</time>
      </trkpt>
      <trkpt lat="44.49382" lon="1.89206">
        <ele>192</ele>
        <time>2024-04-23T08:42:33Z</time>
      </trkpt>
      <trkpt lat="44.49367" lon="1.89201">
        <ele>195</ele>
        <time>2024-04-23T08:42:53Z</time>
      </trkpt>
      <trkpt lat="44.49352" lon="1.89201">
        <ele>198</ele>
        <time>2024-04-23T08:43:13Z</time>
      </trkpt>
      <trkpt lat="44.49337" lon="1.89197">
        <ele>201</ele>
        <time>2024-04-23T08:43:34Z</time>
      </trkpt>
      <trkpt lat="44.4933" lon="1.89189">
        <ele>202</ele>
        <time>2024-04-23T08:43:46Z</time>
      </trkpt>
      <trkpt lat="44.49327" lon="1.89157">
        <ele>203</ele>
        <time>2024-04-23T08:44:16Z</time>
      </trkpt>
      <trkpt lat="44.49323" lon="1.89142">
        <ele>203</ele>
        <time>2024-04-23T08:44:32Z</time>
      </trkpt>
      <trkpt lat="44.49302" lon="1.89098">
        <ele>206</ele>
        <time>2024-04-23T08:45:22Z</time>
      </trkpt>
      <trkpt lat="44.49296" lon="1.8909">
        <ele>207</ele>
        <time>2024-04-23T08:45:33Z</time>
      </trkpt>
      <trkpt lat="44.49268" lon="1.89067">
        <ele>211</ele>
        <time>2024-04-23T08:46:16Z</time>
      </trkpt>
      <trkpt lat="44.49262" lon="1.8906">
        <ele>211</ele>
        <time>2024-04-23T08:46:27Z</time>
      </trkpt>
      <trkpt lat="44.49216" lon="1.89032">
        <ele>213</ele>
        <time>2024-04-23T08:47:34Z</time>
      </trkpt>
      <trkpt lat="44.49176" lon="1.89021">
        <ele>216</ele>
        <time>2024-04-23T08:48:28Z</time>
      </trkpt>
      <trkpt lat="44.49149" lon="1.89017">
        <ele>218</ele>
        <time>2024-04-23T08:49:04Z</time>
      </trkpt>
      <trkpt lat="44.49139" lon="1.89018">
        <ele>219</ele>
        <time>2024-04-23T08:49:18Z</time>
      </trkpt>
      <trkpt lat="44.49134" lon="1.89015">
        <ele>219</ele>
        <time>2024-04-23T08:49:25Z</time>
      </trkpt>
      <trkpt lat="44.49113" lon="1.89019">
        <ele>223</ele>
        <time>2024-04-23T08:49:53Z</time>
      </trkpt>
      <trkpt lat="44.49093" lon="1.89019">
        <ele>226</ele>
        <time>2024-04-23T08:50:20Z</time>
      </trkpt>
      <trkpt lat="44.49073" lon="1.89013">
        <ele>226</ele>
        <time>2024-04-23T08:50:47Z</time>
      </trkpt>
      <trkpt lat="44.49036" lon="1.8901">
        <ele>230</ele>
        <time>2024-04-23T08:51:37Z</time>
      </trkpt>
      <trkpt lat="44.49028" lon="1.89001">
        <ele>227</ele>
        <time>2024-04-23T08:51:50Z</time>
      </trkpt>
      <trkpt lat="44.49007" lon="1.88995">
        <ele>227</ele>
        <time>2024-04-23T08:52:19Z</time>
      </trkpt>
      <trkpt lat="44.48993" lon="1.88995">
        <ele>229</ele>
        <time>2024-04-23T08:52:38Z</time>
      </trkpt>
      <trkpt lat="44.48967" lon="1.88997">
        <ele>233</ele>
        <time>2024-04-23T08:53:12Z</time>
      </trkpt>
      <trkpt lat="44.48926" lon="1.8899">
        <ele>233</ele>
        <time>2024-04-23T08:54:08Z</time>
      </trkpt>
      <trkpt lat="44.48905" lon="1.88988">
        <ele>233</ele>
        <time>2024-04-23T08:54:36Z</time>
      </trkpt>
      <trkpt lat="44.48886" lon="1.88993">
        <ele>237</ele>
        <time>2024-04-23T08:55:01Z</time>
      </trkpt>
      <trkpt lat="44.48863" lon="1.89002">
        <ele>242</ele>
        <time>2024-04-23T08:55:33Z</time>
      </trkpt>
      <trkpt lat="44.48802" lon="1.88988">
        <ele>243</ele>
        <time>2024-04-23T08:56:56Z</time>
      </trkpt>
      <trkpt lat="44.48785" lon="1.88976">
        <ele>243</ele>
        <time>2024-04-23T08:57:21Z</time>
      </trkpt>
      <trkpt lat="44.48773" lon="1.88962">
        <ele>241</ele>
        <time>2024-04-23T08:57:42Z</time>
      </trkpt>
      <trkpt lat="44.48766" lon="1.88947">
        <ele>238</ele>
        <time>2024-04-23T08:57:59Z</time>
      </trkpt>
      <trkpt lat="44.48764" lon="1.88936">
        <ele>235</ele>
        <time>2024-04-23T08:58:10Z</time>
      </trkpt>
      <trkpt lat="44.48756" lon="1.88922">
        <ele>234</ele>
        <time>2024-04-23T08:58:27Z</time>
      </trkpt>
      <trkpt lat="44.4874" lon="1.88915">
        <ele>236</ele>
        <time>2024-04-23T08:58:49Z</time>
      </trkpt>
      <trkpt lat="44.4872" lon="1.88901">
        <ele>235</ele>
        <time>2024-04-23T08:59:19Z</time>
      </trkpt>
      <trkpt lat="44.48686" lon="1.88892">
        <ele>242</ele>
        <time>2024-04-23T09:00:05Z</time>
      </trkpt>
      <trkpt lat="44.48662" lon="1.88883">
        <ele>245</ele>
        <time>2024-04-23T09:00:39Z</time>
      </trkpt>
      <trkpt lat="44.48623" lon="1.88874">
        <ele>254</ele>
        <time>2024-04-23T09:01:31Z</time>
      </trkpt>
      <trkpt lat="44.48613" lon="1.88863">
        <ele>253</ele>
        <time>2024-04-23T09:01:48Z</time>
      </trkpt>
      <trkpt lat="44.4858" lon="1.88845">
        <ele>257</ele>
        <time>2024-04-23T09:02:35Z</time>
      </trkpt>
      <trkpt lat="44.48565" lon="1.8884">
        <ele>260</ele>
        <time>2024-04-23T09:02:56Z</time>
      </trkpt>
      <trkpt lat="44.48555" lon="1.8883">
        <ele>259</ele>
        <time>2024-04-23T09:03:12Z</time>
      </trkpt>
      <trkpt lat="44.48528" lon="1.88825">
        <ele>266</ele>
        <time>2024-04-23T09:03:49Z</time>
      </trkpt>
      <trkpt lat="44.4851" lon="1.88819">
        <ele>270</ele>
        <time>2024-04-23T09:04:13Z</time>
      </trkpt>
      <trkpt lat="44.48492" lon="1.88805">
        <ele>271</ele>
        <time>2024-04-23T09:04:41Z</time>
      </trkpt>
      <trkpt lat="44.48481" lon="1.88788">
        <ele>269</ele>
        <time>2024-04-23T09:05:03Z</time>
      </trkpt>
      <trkpt lat="44.48475" lon="1.88775">
        <ele>266</ele>
        <time>2024-04-23T09:05:18Z</time>
      </trkpt>
      <trkpt lat="44.48469" lon="1.88769">
        <ele>267</ele>
        <time>2024-04-23T09:05:27Z</time>
      </trkpt>
      <trkpt lat="44.48432" lon="1.88764">
        <ele>281</ele>
        <time>2024-04-23T09:06:17Z</time>
      </trkpt>
      <trkpt lat="44.4843" lon="1.88757">
        <ele>280</ele>
        <time>2024-04-23T09:06:24Z</time>
      </trkpt>
      <trkpt lat="44.48421" lon="1.88756">
        <ele>284</ele>
        <time>2024-04-23T09:06:36Z</time>
      </trkpt>
      <trkpt lat="44.48404" lon="1.88746">
        <ele>286</ele>
        <time>2024-04-23T09:07:01Z</time>
      </trkpt>
      <trkpt lat="44.48388" lon="1.88733">
        <ele>285</ele>
        <time>2024-04-23T09:07:25Z</time>
      </trkpt>
      <trkpt lat="44.48371" lon="1.88723">
        <ele>287</ele>
        <time>2024-04-23T09:07:50Z</time>
      </trkpt>
      <trkpt lat="44.48366" lon="1.88721">
        <ele>287</ele>
        <time>2024-04-23T09:07:57Z</time>
      </trkpt>
      <trkpt lat="44.48358" lon="1.88715">
        <ele>289</ele>
        <time>2024-04-23T09:08:09Z</time>
      </trkpt>
      <trkpt lat="44.48352" lon="1.88703">
        <ele>288</ele>
        <time>2024-04-23T09:08:23Z</time>
      </trkpt>
      <trkpt lat="44.48345" lon="1.88681">
        <ele>288</ele>
        <time>2024-04-23T09:08:46Z</time>
      </trkpt>
      <trkpt lat="44.48346" lon="1.88686">
        <ele>288</ele>
        <time>2024-04-23T09:08:51Z</time>
      </trkpt>
      <trkpt lat="44.48337" lon="1.88674">
        <ele>290</ele>
        <time>2024-04-23T09:09:08Z</time>
      </trkpt>
      <trkpt lat="44.48333" lon="1.8866">
        <ele>290</ele>
        <time>2024-04-23T09:09:22Z</time>
      </trkpt>
      <trkpt lat="44.48329" lon="1.88659">
        <ele>290</ele>
        <time>2024-04-23T09:09:27Z</time>
      </trkpt>
      <trkpt lat="44.4833" lon="1.88654">
        <ele>290</ele>
        <time>2024-04-23T09:09:32Z</time>
      </trkpt>
      <trkpt lat="44.48333" lon="1.88659">
        <ele>290</ele>
        <time>2024-04-23T09:09:38Z</time>
      </trkpt>
      <trkpt lat="44.48335" lon="1.88657">
        <ele>289</ele>
        <time>2024-04-23T09:09:42Z</time>
      </trkpt>
      <trkpt lat="44.48333" lon="1.88649">
        <ele>289</ele>
        <time>2024-04-23T09:09:50Z</time>
      </trkpt>
      <trkpt lat="44.48335" lon="1.88649">
        <ele>288</ele>
        <time>2024-04-23T09:09:52Z</time>
      </trkpt>
      <trkpt lat="44.4833" lon="1.88651">
        <ele>289</ele>
        <time>2024-04-23T09:09:59Z</time>
      </trkpt>
      <trkpt lat="44.48337" lon="1.88651">
        <ele>287</ele>
        <time>2024-04-23T09:10:09Z</time>
      </trkpt>
      <trkpt lat="44.48335" lon="1.88656">
        <ele>289</ele>
        <time>2024-04-23T09:10:14Z</time>
      </trkpt>
      <trkpt lat="44.48329" lon="1.88653">
        <ele>290</ele>
        <time>2024-04-23T09:10:23Z</time>
      </trkpt>
      <trkpt lat="44.48332" lon="1.88653">
        <ele>289</ele>
        <time>2024-04-23T09:10:27Z</time>
      </trkpt>
      <trkpt lat="44.4833" lon="1.88662">
        <ele>291</ele>
        <time>2024-04-23T09:10:36Z</time>
      </trkpt>
      <trkpt lat="44.48329" lon="1.88659">
        <ele>290</ele>
        <time>2024-04-23T09:10:39Z</time>
      </trkpt>
      <trkpt lat="44.48332" lon="1.88654">
        <ele>290</ele>
        <time>2024-04-23T09:10:45Z</time>
      </trkpt>
      <trkpt lat="44.48331" lon="1.88651">
        <ele>289</ele>
        <time>2024-04-23T09:10:48Z</time>
      </trkpt>
      <trkpt lat="44.48328" lon="1.88655">
        <ele>290</ele>
        <time>2024-04-23T09:10:54Z</time>
      </trkpt>
      <trkpt lat="44.4833" lon="1.88655">
        <ele>290</ele>
        <time>2024-04-23T09:10:56Z</time>
      </trkpt>
      <trkpt lat="44.48332" lon="1.8865">
        <ele>289</ele>
        <time>2024-04-23T09:11:02Z</time>
      </trkpt>
      <trkpt lat="44.48329" lon="1.88654">
        <ele>290</ele>
        <time>2024-04-23T09:11:07Z</time>
      </trkpt>
      <trkpt lat="44.48331" lon="1.88654">
        <ele>290</ele>
        <time>2024-04-23T09:11:10Z</time>
      </trkpt>
      <trkpt lat="44.48325" lon="1.88654">
        <ele>290</ele>
        <time>2024-04-23T09:11:18Z</time>
      </trkpt>
      <trkpt lat="44.48319" lon="1.88657">
        <ele>291</ele>
        <time>2024-04-23T09:11:27Z</time>
      </trkpt>
      <trkpt lat="44.4826" lon="1.88699">
        <ele>297</ele>
        <time>2024-04-23T09:12:55Z</time>
      </trkpt>
      <trkpt lat="44.48249" lon="1.88703">
        <ele>297</ele>
        <time>2024-04-23T09:13:10Z</time>
      </trkpt>
      <trkpt lat="44.4823" lon="1.88656">
        <ele>297</ele>
        <time>2024-04-23T09:14:01Z</time>
      </trkpt>
      <trkpt lat="44.48204" lon="1.88608">
        <ele>296</ele>
        <time>2024-04-23T09:14:59Z</time>
      </trkpt>
      <trkpt lat="44.48058" lon="1.88382">
        <ele>303</ele>
        <time>2024-04-23T09:19:49Z</time>
      </trkpt>
      <trkpt lat="44.48026" lon="1.88339">
        <ele>303</ele>
        <time>2024-04-23T09:20:48Z</time>
      </trkpt>
      <trkpt lat="44.48003" lon="1.88312">
        <ele>302</ele>
        <time>2024-04-23T09:21:28Z</time>
      </trkpt>
      <trkpt lat="44.47953" lon="1.88246">
        <ele>299</ele>
        <time>2024-04-23T09:23:00Z</time>
      </trkpt>
      <trkpt lat="44.47901" lon="1.88184">
        <ele>297</ele>
        <time>2024-04-23T09:24:31Z</time>
      </trkpt>
      <trkpt lat="44.47887" lon="1.88165">
        <ele>296</ele>
        <time>2024-04-23T09:24:57Z</time>
      </trkpt>
      <trkpt lat="44.47877" lon="1.88155">
        <ele>296</ele>
        <time>2024-04-23T09:25:14Z</time>
      </trkpt>
      <trkpt lat="44.4786" lon="1.88131">
        <ele>295</ele>
        <time>2024-04-23T09:25:46Z</time>
      </trkpt>
      <trkpt lat="44.47803" lon="1.87986">
        <ele>297</ele>
        <time>2024-04-23T09:28:23Z</time>
      </trkpt>
      <trkpt lat="44.47783" lon="1.8794">
        <ele>297</ele>
        <time>2024-04-23T09:29:15Z</time>
      </trkpt>
      <trkpt lat="44.47762" lon="1.879">
        <ele>296</ele>
        <time>2024-04-23T09:30:02Z</time>
      </trkpt>
      <trkpt lat="44.47745" lon="1.87876">
        <ele>296</ele>
        <time>2024-04-23T09:30:34Z</time>
      </trkpt>
      <trkpt lat="44.4772" lon="1.87847">
        <ele>297</ele>
        <time>2024-04-23T09:31:17Z</time>
      </trkpt>
      <trkpt lat="44.47719" lon="1.87839">
        <ele>296</ele>
        <time>2024-04-23T09:31:25Z</time>
      </trkpt>
      <trkpt lat="44.47707" lon="1.87815">
        <ele>296</ele>
        <time>2024-04-23T09:31:53Z</time>
      </trkpt>
      <trkpt lat="44.477" lon="1.87802">
        <ele>296</ele>
        <time>2024-04-23T09:32:09Z</time>
      </trkpt>
      <trkpt lat="44.47685" lon="1.8778">
        <ele>296</ele>
        <time>2024-04-23T09:32:38Z</time>
      </trkpt>
      <trkpt lat="44.47653" lon="1.87749">
        <ele>297</ele>
        <time>2024-04-23T09:33:29Z</time>
      </trkpt>
      <trkpt lat="44.47626" lon="1.87711">
        <ele>297</ele>
        <time>2024-04-23T09:34:21Z</time>
      </trkpt>
      <trkpt lat="44.47617" lon="1.87695">
        <ele>296</ele>
        <time>2024-04-23T09:34:40Z</time>
      </trkpt>
      <trkpt lat="44.47606" lon="1.87658">
        <ele>295</ele>
        <time>2024-04-23T09:35:18Z</time>
      </trkpt>
      <trkpt lat="44.47584" lon="1.87616">
        <ele>296</ele>
        <time>2024-04-23T09:36:08Z</time>
      </trkpt>
      <trkpt lat="44.47558" lon="1.87583">
        <ele>296</ele>
        <time>2024-04-23T09:36:55Z</time>
      </trkpt>
      <trkpt lat="44.4754" lon="1.87553">
        <ele>297</ele>
        <time>2024-04-23T09:37:32Z</time>
      </trkpt>
      <trkpt lat="44.47503" lon="1.8751">
        <ele>297</ele>
        <time>2024-04-23T09:38:36Z</time>
      </trkpt>
      <trkpt lat="44.47501" lon="1.87505">
        <ele>297</ele>
        <time>2024-04-23T09:38:41Z</time>
      </trkpt>
      <trkpt lat="44.47498" lon="1.87481">
        <ele>296</ele>
        <time>2024-04-23T09:39:05Z</time>
      </trkpt>
      <trkpt lat="44.47499" lon="1.87467">
        <ele>296</ele>
        <time>2024-04-23T09:39:18Z</time>
      </trkpt>
      <trkpt lat="44.47502" lon="1.87459">
        <ele>296</ele>
        <time>2024-04-23T09:39:27Z</time>
      </trkpt>
      <trkpt lat="44.47516" lon="1.8744">
        <ele>295</ele>
        <time>2024-04-23T09:39:53Z</time>
      </trkpt>
      <trkpt lat="44.47534" lon="1.87393">
        <ele>293</ele>
        <time>2024-04-23T09:40:43Z</time>
      </trkpt>
      <trkpt lat="44.47564" lon="1.87354">
        <ele>292</ele>
        <time>2024-04-23T09:41:38Z</time>
      </trkpt>
      <trkpt lat="44.4759" lon="1.87303">
        <ele>291</ele>
        <time>2024-04-23T09:42:38Z</time>
      </trkpt>
      <trkpt lat="44.47603" lon="1.87273">
        <ele>290</ele>
        <time>2024-04-23T09:43:11Z</time>
      </trkpt>
      <trkpt lat="44.47616" lon="1.87251">
        <ele>291</ele>
        <time>2024-04-23T09:43:38Z</time>
      </trkpt>
      <trkpt lat="44.47627" lon="1.87234">
        <ele>292</ele>
        <time>2024-04-23T09:44:00Z</time>
      </trkpt>
      <trkpt lat="44.47649" lon="1.87211">
        <ele>293</ele>
        <time>2024-04-23T09:44:37Z</time>
      </trkpt>
      <trkpt lat="44.4768" lon="1.87159">
        <ele>294</ele>
        <time>2024-04-23T09:45:41Z</time>
      </trkpt>
      <trkpt lat="44.47698" lon="1.87117">
        <ele>295</ele>
        <time>2024-04-23T09:46:28Z</time>
      </trkpt>
      <trkpt lat="44.47713" lon="1.87074">
        <ele>297</ele>
        <time>2024-04-23T09:47:14Z</time>
      </trkpt>
      <trkpt lat="44.47743" lon="1.87004">
        <ele>300</ele>
        <time>2024-04-23T09:48:31Z</time>
      </trkpt>
      <trkpt lat="44.47757" lon="1.86987">
        <ele>301</ele>
        <time>2024-04-23T09:48:56Z</time>
      </trkpt>
      <trkpt lat="44.47791" lon="1.86967">
        <ele>300</ele>
        <time>2024-04-23T09:49:45Z</time>
      </trkpt>
      <trkpt lat="44.478" lon="1.86955">
        <ele>300</ele>
        <time>2024-04-23T09:50:02Z</time>
      </trkpt>
      <trkpt lat="44.47805" lon="1.8694">
        <ele>300</ele>
        <time>2024-04-23T09:50:18Z</time>
      </trkpt>
      <trkpt lat="44.47809" lon="1.86924">
        <ele>301</ele>
        <time>2024-04-23T09:50:34Z</time>
      </trkpt>
      <trkpt lat="44.4781" lon="1.86841">
        <ele>304</ele>
        <time>2024-04-23T09:51:53Z</time>
      </trkpt>
      <trkpt lat="44.47813" lon="1.8684">
        <ele>304</ele>
        <time>2024-04-23T09:51:57Z</time>
      </trkpt>
      <trkpt lat="44.47816" lon="1.86844">
        <ele>304</ele>
        <time>2024-04-23T09:52:02Z</time>
      </trkpt>
      <trkpt lat="44.47814" lon="1.86842">
        <ele>304</ele>
        <time>2024-04-23T09:52:06Z</time>
      </trkpt>
      <trkpt lat="44.47815" lon="1.86844">
        <ele>304</ele>
        <time>2024-04-23T09:52:08Z</time>
      </trkpt>
      <trkpt lat="44.47816" lon="1.86746">
        <ele>302</ele>
        <time>2024-04-23T09:53:41Z</time>
      </trkpt>
      <trkpt lat="44.4781" lon="1.86694">
        <ele>298</ele>
        <time>2024-04-23T09:54:31Z</time>
      </trkpt>
      <trkpt lat="44.47816" lon="1.86639">
        <ele>298</ele>
        <time>2024-04-23T09:55:24Z</time>
      </trkpt>
      <trkpt lat="44.47819" lon="1.86581">
        <ele>301</ele>
        <time>2024-04-23T09:56:20Z</time>
      </trkpt>
      <trkpt lat="44.47818" lon="1.86555">
        <ele>301</ele>
        <time>2024-04-23T09:56:45Z</time>
      </trkpt>
      <trkpt lat="44.47812" lon="1.86496">
        <ele>302</ele>
        <time>2024-04-23T09:57:41Z</time>
      </trkpt>
      <trkpt lat="44.47802" lon="1.86447">
        <ele>302</ele>
        <time>2024-04-23T09:58:30Z</time>
      </trkpt>
      <trkpt lat="44.47795" lon="1.86425">
        <ele>302</ele>
        <time>2024-04-23T09:58:53Z</time>
      </trkpt>
      <trkpt lat="44.47793" lon="1.86395">
        <ele>302</ele>
        <time>2024-04-23T09:59:22Z</time>
      </trkpt>
      <trkpt lat="44.47793" lon="1.86364">
        <ele>302</ele>
        <time>2024-04-23T09:59:51Z</time>
      </trkpt>
      <trkpt lat="44.47781" lon="1.86277">
        <ele>300</ele>
        <time>2024-04-23T10:01:15Z</time>
      </trkpt>
      <trkpt lat="44.47774" lon="1.86241">
        <ele>300</ele>
        <time>2024-04-23T10:01:51Z</time>
      </trkpt>
      <trkpt lat="44.47762" lon="1.86212">
        <ele>301</ele>
        <time>2024-04-23T10:02:23Z</time>
      </trkpt>
      <trkpt lat="44.47752" lon="1.86181">
        <ele>302</ele>
        <time>2024-04-23T10:02:55Z</time>
      </trkpt>
      <trkpt lat="44.4774" lon="1.86159">
        <ele>303</ele>
        <time>2024-04-23T10:03:22Z</time>
      </trkpt>
      <trkpt lat="44.47731" lon="1.86136">
        <ele>304</ele>
        <time>2024-04-23T10:03:47Z</time>
      </trkpt>
      <trkpt lat="44.47725" lon="1.86091">
        <ele>305</ele>
        <time>2024-04-23T10:04:30Z</time>
      </trkpt>
      <trkpt lat="44.47716" lon="1.8607">
        <ele>305</ele>
        <time>2024-04-23T10:04:54Z</time>
      </trkpt>
      <trkpt lat="44.47705" lon="1.86054">
        <ele>304</ele>
        <time>2024-04-23T10:05:15Z</time>
      </trkpt>
      <trkpt lat="44.47686" lon="1.86038">
        <ele>302</ele>
        <time>2024-04-23T10:05:44Z</time>
      </trkpt>
      <trkpt lat="44.47652" lon="1.86013">
        <ele>299</ele>
        <time>2024-04-23T10:06:36Z</time>
      </trkpt>
      <trkpt lat="44.47637" lon="1.85984">
        <ele>295</ele>
        <time>2024-04-23T10:07:10Z</time>
      </trkpt>
      <trkpt lat="44.47626" lon="1.85953">
        <ele>292</ele>
        <time>2024-04-23T10:07:43Z</time>
      </trkpt>
      <trkpt lat="44.47595" lon="1.85889">
        <ele>288</ele>
        <time>2024-04-23T10:08:56Z</time>
      </trkpt>
      <trkpt lat="44.47592" lon="1.85866">
        <ele>288</ele>
        <time>2024-04-23T10:09:18Z</time>
      </trkpt>
      <trkpt lat="44.47596" lon="1.85838">
        <ele>287</ele>
        <time>2024-04-23T10:09:46Z</time>
      </trkpt>
      <trkpt lat="44.47607" lon="1.85798">
        <ele>287</ele>
        <time>2024-04-23T10:10:27Z</time>
      </trkpt>
      <trkpt lat="44.47636" lon="1.85723">
        <ele>286</ele>
        <time>2024-04-23T10:11:48Z</time>
      </trkpt>
      <trkpt lat="44.47646" lon="1.85704">
        <ele>286</ele>
        <time>2024-04-23T10:12:10Z</time>
      </trkpt>
      <trkpt lat="44.47695" lon="1.85631">
        <ele>282</ele>
        <time>2024-04-23T10:13:46Z</time>
      </trkpt>
      <trkpt lat="44.47714" lon="1.85586">
        <ele>282</ele>
        <time>2024-04-23T10:14:35Z</time>
      </trkpt>
      <trkpt lat="44.47727" lon="1.85542">
        <ele>282</ele>
        <time>2024-04-23T10:15:21Z</time>
      </trkpt>
      <trkpt lat="44.47737" lon="1.85516">
        <ele>281</ele>
        <time>2024-04-23T10:15:49Z</time>
      </trkpt>
      <trkpt lat="44.47742" lon="1.85494">
        <ele>281</ele>
        <time>2024-04-23T10:16:11Z</time>
      </trkpt>
      <trkpt lat="44.47745" lon="1.85492">
        <ele>281</ele>
        <time>2024-04-23T10:16:15Z</time>
      </trkpt>
      <trkpt lat="44.47796" lon="1.855">
        <ele>273</ele>
        <time>2024-04-23T10:17:24Z</time>
      </trkpt>
      <trkpt lat="44.47805" lon="1.85499">
        <ele>271</ele>
        <time>2024-04-23T10:17:36Z</time>
      </trkpt>
      <trkpt lat="44.47829" lon="1.85501">
        <ele>267</ele>
        <time>2024-04-23T10:18:08Z</time>
      </trkpt>
      <trkpt lat="44.47834" lon="1.85495">
        <ele>266</ele>
        <time>2024-04-23T10:18:17Z</time>
      </trkpt>
      <trkpt lat="44.47845" lon="1.85478">
        <ele>264</ele>
        <time>2024-04-23T10:18:39Z</time>
      </trkpt>
      <trkpt lat="44.47879" lon="1.85453">
        <ele>261</ele>
        <time>2024-04-23T10:19:30Z</time>
      </trkpt>
      <trkpt lat="44.47884" lon="1.85445">
        <ele>261</ele>
        <time>2024-04-23T10:19:40Z</time>
      </trkpt>
      <trkpt lat="44.47897" lon="1.85435">
        <ele>261</ele>
        <time>2024-04-23T10:20:00Z</time>
      </trkpt>
      <trkpt lat="44.47917" lon="1.8542">
        <ele>262</ele>
        <time>2024-04-23T10:20:30Z</time>
      </trkpt>
      <trkpt lat="44.47924" lon="1.85409">
        <ele>261</ele>
        <time>2024-04-23T10:20:44Z</time>
      </trkpt>
      <trkpt lat="44.47924" lon="1.85407">
        <ele>261</ele>
        <time>2024-04-23T10:20:46Z</time>
      </trkpt>
      <trkpt lat="44.47924" lon="1.85411">
        <ele>261</ele>
        <time>2024-04-23T10:20:50Z</time>
      </trkpt>
      <trkpt lat="44.47916" lon="1.85422">
        <ele>261</ele>
        <time>2024-04-23T10:21:05Z</time>
      </trkpt>
      <trkpt lat="44.47914" lon="1.85432">
        <ele>260</ele>
        <time>2024-04-23T10:21:15Z</time>
      </trkpt>
      <trkpt lat="44.47924" lon="1.8541">
        <ele>261</ele>
        <time>2024-04-23T10:21:39Z</time>
      </trkpt>
      <trkpt lat="44.47924" lon="1.85399">
        <ele>260</ele>
        <time>2024-04-23T10:21:50Z</time>
      </trkpt>
      <trkpt lat="44.47914" lon="1.85401">
        <ele>260</ele>
        <time>2024-04-23T10:22:03Z</time>
      </trkpt>
      <trkpt lat="44.47913" lon="1.854">
        <ele>260</ele>
        <time>2024-04-23T10:22:05Z</time>
      </trkpt>
      <trkpt lat="44.47907" lon="1.85401">
        <ele>260</ele>
        <time>2024-04-23T10:22:13Z</time>
      </trkpt>
      <trkpt lat="44.47889" lon="1.85405">
        <ele>260</ele>
        <time>2024-04-23T10:22:37Z</time>
      </trkpt>
      <trkpt lat="44.47872" lon="1.85406">
        <ele>260</ele>
        <time>2024-04-23T10:23:00Z</time>
      </trkpt>
      <trkpt lat="44.47831" lon="1.85411">
        <ele>261</ele>
        <time>2024-04-23T10:23:55Z</time>
      </trkpt>
      <trkpt lat="44.47824" lon="1.85408">
        <ele>262</ele>
        <time>2024-04-23T10:24:05Z</time>
      </trkpt>
      <trkpt lat="44.4782" lon="1.85393">
        <ele>260</ele>
        <time>2024-04-23T10:24:20Z</time>
      </trkpt>
      <trkpt lat="44.47839" lon="1.85299">
        <ele>243</ele>
        <time>2024-04-23T10:25:53Z</time>
      </trkpt>
      <trkpt lat="44.47838" lon="1.85261">
        <ele>237</ele>
        <time>2024-04-23T10:26:29Z</time>
      </trkpt>
      <trkpt lat="44.47844" lon="1.85212">
        <ele>229</ele>
        <time>2024-04-23T10:27:17Z</time>
      </trkpt>
      <trkpt lat="44.47844" lon="1.85204">
        <ele>228</ele>
        <time>2024-04-23T10:27:24Z</time>
      </trkpt>
      <trkpt lat="44.47837" lon="1.85174">
        <ele>223</ele>
        <time>2024-04-23T10:27:54Z</time>
      </trkpt>
      <trkpt lat="44.4782" lon="1.85163">
        <ele>221</ele>
        <time>2024-04-23T10:28:19Z</time>
      </trkpt>
      <trkpt lat="44.47805" lon="1.85158">
        <ele>220</ele>
        <time>2024-04-23T10:28:40Z</time>
      </trkpt>
      <trkpt lat="44.47784" lon="1.85163">
        <ele>220</ele>
        <time>2024-04-23T10:29:08Z</time>
      </trkpt>
      <trkpt lat="44.47769" lon="1.85162">
        <ele>220</ele>
        <time>2024-04-23T10:29:28Z</time>
      </trkpt>
      <trkpt lat="44.47758" lon="1.85156">
        <ele>219</ele>
        <time>2024-04-23T10:29:44Z</time>
      </trkpt>
      <trkpt lat="44.47744" lon="1.85142">
        <ele>217</ele>
        <time>2024-04-23T10:30:07Z</time>
      </trkpt>
      <trkpt lat="44.47734" lon="1.85126">
        <ele>217</ele>
        <time>2024-04-23T10:30:27Z</time>
      </trkpt>
      <trkpt lat="44.47724" lon="1.85073">
        <ele>211</ele>
        <time>2024-04-23T10:31:19Z</time>
      </trkpt>
      <trkpt lat="44.47716" lon="1.85049">
        <ele>210</ele>
        <time>2024-04-23T10:31:45Z</time>
      </trkpt>
      <trkpt lat="44.47713" lon="1.85032">
        <ele>209</ele>
        <time>2024-04-23T10:32:01Z</time>
      </trkpt>
      <trkpt lat="44.4771" lon="1.85024">
        <ele>208</ele>
        <time>2024-04-23T10:32:10Z</time>
      </trkpt>
      <trkpt lat="44.47695" lon="1.85003">
        <ele>208</ele>
        <time>2024-04-23T10:32:38Z</time>
      </trkpt>
      <trkpt lat="44.47636" lon="1.84937">
        <ele>200</ele>
        <time>2024-04-23T10:34:19Z</time>
      </trkpt>
      <trkpt lat="44.47625" lon="1.84921">
        <ele>198</ele>
        <time>2024-04-23T10:34:40Z</time>
      </trkpt>
      <trkpt lat="44.47618" lon="1.84909">
        <ele>196</ele>
        <time>2024-04-23T10:34:55Z</time>
      </trkpt>
      <trkpt lat="44.47584" lon="1.84892">
        <ele>194</ele>
        <time>2024-04-23T10:35:43Z</time>
      </trkpt>
      <trkpt lat="44.47569" lon="1.84886">
        <ele>190</ele>
        <time>2024-04-23T10:36:04Z</time>
      </trkpt>
      <trkpt lat="44.47562" lon="1.84878">
        <ele>188</ele>
        <time>2024-04-23T10:36:16Z</time>
      </trkpt>
      <trkpt lat="44.47558" lon="1.84871">
        <ele>186</ele>
        <time>2024-04-23T10:36:24Z</time>
      </trkpt>
      <trkpt lat="44.4756" lon="1.84861">
        <ele>184</ele>
        <time>2024-04-23T10:36:34Z</time>
      </trkpt>
      <trkpt lat="44.47559" lon="1.8485">
        <ele>182</ele>
        <time>2024-04-23T10:36:45Z</time>
      </trkpt>
      <trkpt lat="44.47571" lon="1.84826">
        <ele>180</ele>
        <time>2024-04-23T10:37:13Z</time>
      </trkpt>
      <trkpt lat="44.4757" lon="1.84815">
        <ele>178</ele>
        <time>2024-04-23T10:37:23Z</time>
      </trkpt>
      <trkpt lat="44.47552" lon="1.84784">
        <ele>171</ele>
        <time>2024-04-23T10:38:01Z</time>
      </trkpt>
      <trkpt lat="44.4755" lon="1.84773">
        <ele>169</ele>
        <time>2024-04-23T10:38:12Z</time>
      </trkpt>
      <trkpt lat="44.47542" lon="1.84766">
        <ele>168</ele>
        <time>2024-04-23T10:38:25Z</time>
      </trkpt>
      <trkpt lat="44.47536" lon="1.84764">
        <ele>167</ele>
        <time>2024-04-23T10:38:33Z</time>
      </trkpt>
    </trkseg>
  </trk>
</gpx>